<?xml version="1.0" encoding="utf-8"?>
<gpx xmlns:xsi="http://www.w3.org/2001/XMLSchema-instance" xmlns:xsd="http://www.w3.org/2001/XMLSchema" version="1.1" creator="Shapelink.com" xmlns="http://www.topografix.com/GPX/1/1" xmlns:gpxtpx="http://www.garmin.com/xmlschemas/TrackPointExtension/v1">
  <metadata>
    <name>Löpning 9.34 km, 2012-03-04</name>
    <desc></desc>
    <author><name>Dennis Rehn</name></author> 
    <time>2012-03-04T17:19:27Z</time>
  </metadata>
  <trk>
    <name>Löpning 9.34 km, 2012-03-04</name>
    <trkseg>
      <trkpt lat="60.0213914033" lon="23.5375940959">
        <ele>46.8</ele>
        <time>2012-03-04T17:19:27Z</time>
      </trkpt>
      <trkpt lat="60.0212738052" lon="23.5378132826">
        <ele>48</ele>
        <time>2012-03-04T17:19:33Z</time>
      </trkpt>
      <trkpt lat="60.0211797603" lon="23.5379508296">
        <ele>49</ele>
        <time>2012-03-04T17:19:37Z</time>
      </trkpt>
      <trkpt lat="60.021048835" lon="23.5381160368">
        <ele>49.8</ele>
        <time>2012-03-04T17:19:42Z</time>
      </trkpt>
      <trkpt lat="60.0209096117" lon="23.5382712696">
        <ele>50.8</ele>
        <time>2012-03-04T17:19:47Z</time>
      </trkpt>
      <trkpt lat="60.0207730705" lon="23.5384386561">
        <ele>52</ele>
        <time>2012-03-04T17:19:52Z</time>
      </trkpt>
      <trkpt lat="60.02062052" lon="23.5386388159">
        <ele>52.4</ele>
        <time>2012-03-04T17:19:57Z</time>
      </trkpt>
      <trkpt lat="60.0204486072" lon="23.5388528896">
        <ele>52.8</ele>
        <time>2012-03-04T17:20:03Z</time>
      </trkpt>
      <trkpt lat="60.0204202764" lon="23.5388816396">
        <ele>53</ele>
        <time>2012-03-04T17:20:04Z</time>
      </trkpt>
      <trkpt lat="60.0202826456" lon="23.5390057755">
        <ele>53</ele>
        <time>2012-03-04T17:20:09Z</time>
      </trkpt>
      <trkpt lat="60.0202554044" lon="23.539037962">
        <ele>53.2</ele>
        <time>2012-03-04T17:20:10Z</time>
      </trkpt>
      <trkpt lat="60.0200685718" lon="23.539259328">
        <ele>53.2</ele>
        <time>2012-03-04T17:20:17Z</time>
      </trkpt>
      <trkpt lat="60.0199415861" lon="23.5393898342">
        <ele>53.2</ele>
        <time>2012-03-04T17:20:22Z</time>
      </trkpt>
      <trkpt lat="60.0198416738" lon="23.5395375232">
        <ele>53.2</ele>
        <time>2012-03-04T17:20:26Z</time>
      </trkpt>
      <trkpt lat="60.019700355" lon="23.5397197457">
        <ele>53.2</ele>
        <time>2012-03-04T17:20:31Z</time>
      </trkpt>
      <trkpt lat="60.0195527497" lon="23.5399444645">
        <ele>53.4</ele>
        <time>2012-03-04T17:20:37Z</time>
      </trkpt>
      <trkpt lat="60.0194334753" lon="23.5401399304">
        <ele>53.4</ele>
        <time>2012-03-04T17:20:42Z</time>
      </trkpt>
      <trkpt lat="60.0193169669" lon="23.5403212309">
        <ele>53.4</ele>
        <time>2012-03-04T17:20:47Z</time>
      </trkpt>
      <trkpt lat="60.0191648354" lon="23.540588362">
        <ele>53.4</ele>
        <time>2012-03-04T17:20:54Z</time>
      </trkpt>
      <trkpt lat="60.0190324852" lon="23.540878292">
        <ele>53.4</ele>
        <time>2012-03-04T17:21:00Z</time>
      </trkpt>
      <trkpt lat="60.0189188266" lon="23.5411692277">
        <ele>53.4</ele>
        <time>2012-03-04T17:21:06Z</time>
      </trkpt>
      <trkpt lat="60.0188322416" lon="23.5414315812">
        <ele>53.4</ele>
        <time>2012-03-04T17:21:11Z</time>
      </trkpt>
      <trkpt lat="60.0187601572" lon="23.541628472">
        <ele>53.4</ele>
        <time>2012-03-04T17:21:15Z</time>
      </trkpt>
      <trkpt lat="60.0186871509" lon="23.5418394444">
        <ele>53.4</ele>
        <time>2012-03-04T17:21:19Z</time>
      </trkpt>
      <trkpt lat="60.0185827962" lon="23.5420929969">
        <ele>53.4</ele>
        <time>2012-03-04T17:21:24Z</time>
      </trkpt>
      <trkpt lat="60.018491685" lon="23.5422843557">
        <ele>53.4</ele>
        <time>2012-03-04T17:21:28Z</time>
      </trkpt>
      <trkpt lat="60.0183917727" lon="23.5424512393">
        <ele>53.4</ele>
        <time>2012-03-04T17:21:32Z</time>
      </trkpt>
      <trkpt lat="60.0182947942" lon="23.5425695917">
        <ele>53.4</ele>
        <time>2012-03-04T17:21:36Z</time>
      </trkpt>
      <trkpt lat="60.0182774436" lon="23.5425934802">
        <ele>53.4</ele>
        <time>2012-03-04T17:21:39Z</time>
      </trkpt>
      <trkpt lat="60.0182789524" lon="23.54257965">
        <ele>53.4</ele>
        <time>2012-03-04T17:21:42Z</time>
      </trkpt>
      <trkpt lat="60.0183662079" lon="23.542443528">
        <ele>53.4</ele>
        <time>2012-03-04T17:21:50Z</time>
      </trkpt>
      <trkpt lat="60.018466204" lon="23.5423092499">
        <ele>53.4</ele>
        <time>2012-03-04T17:21:56Z</time>
      </trkpt>
      <trkpt lat="60.0185677926" lon="23.5420923264">
        <ele>53.4</ele>
        <time>2012-03-04T17:22:01Z</time>
      </trkpt>
      <trkpt lat="60.0186646036" lon="23.5418487483">
        <ele>53.4</ele>
        <time>2012-03-04T17:22:06Z</time>
      </trkpt>
      <trkpt lat="60.0187549605" lon="23.5415820363">
        <ele>53.4</ele>
        <time>2012-03-04T17:22:11Z</time>
      </trkpt>
      <trkpt lat="60.0188629193" lon="23.5412644461">
        <ele>53.4</ele>
        <time>2012-03-04T17:22:17Z</time>
      </trkpt>
      <trkpt lat="60.018947828" lon="23.5409956386">
        <ele>53.4</ele>
        <time>2012-03-04T17:22:22Z</time>
      </trkpt>
      <trkpt lat="60.0190652584" lon="23.5406811497">
        <ele>53.4</ele>
        <time>2012-03-04T17:22:28Z</time>
      </trkpt>
      <trkpt lat="60.0192059067" lon="23.5404161978">
        <ele>53.4</ele>
        <time>2012-03-04T17:22:34Z</time>
      </trkpt>
      <trkpt lat="60.0193204034" lon="23.5402179659">
        <ele>53.4</ele>
        <time>2012-03-04T17:22:39Z</time>
      </trkpt>
      <trkpt lat="60.0194324694" lon="23.5400204045">
        <ele>53.4</ele>
        <time>2012-03-04T17:22:44Z</time>
      </trkpt>
      <trkpt lat="60.0195883728" lon="23.5398258606">
        <ele>53.4</ele>
        <time>2012-03-04T17:22:50Z</time>
      </trkpt>
      <trkpt lat="60.019750814" lon="23.5396082665">
        <ele>53.4</ele>
        <time>2012-03-04T17:22:57Z</time>
      </trkpt>
      <trkpt lat="60.0199099863" lon="23.5393989704">
        <ele>53.4</ele>
        <time>2012-03-04T17:23:03Z</time>
      </trkpt>
      <trkpt lat="60.02008148" lon="23.5392283149">
        <ele>53.4</ele>
        <time>2012-03-04T17:23:09Z</time>
      </trkpt>
      <trkpt lat="60.0202451785" lon="23.5390633591">
        <ele>53.4</ele>
        <time>2012-03-04T17:23:15Z</time>
      </trkpt>
      <trkpt lat="60.0204066977" lon="23.5389203639">
        <ele>53.4</ele>
        <time>2012-03-04T17:23:21Z</time>
      </trkpt>
      <trkpt lat="60.0205444961" lon="23.5387942163">
        <ele>53.4</ele>
        <time>2012-03-04T17:23:26Z</time>
      </trkpt>
      <trkpt lat="60.0206731583" lon="23.5386675658">
        <ele>53.4</ele>
        <time>2012-03-04T17:23:31Z</time>
      </trkpt>
      <trkpt lat="60.0208438976" lon="23.5384678252">
        <ele>53.4</ele>
        <time>2012-03-04T17:23:37Z</time>
      </trkpt>
      <trkpt lat="60.0209888206" lon="23.5383208904">
        <ele>53.4</ele>
        <time>2012-03-04T17:23:42Z</time>
      </trkpt>
      <trkpt lat="60.0211691153" lon="23.53814881">
        <ele>53.4</ele>
        <time>2012-03-04T17:23:48Z</time>
      </trkpt>
      <trkpt lat="60.0213126134" lon="23.5380148673">
        <ele>53.4</ele>
        <time>2012-03-04T17:23:53Z</time>
      </trkpt>
      <trkpt lat="60.0213712867" lon="23.5378935812">
        <ele>53.4</ele>
        <time>2012-03-04T17:23:59Z</time>
      </trkpt>
      <trkpt lat="60.021395259" lon="23.5378121929">
        <ele>53.4</ele>
        <time>2012-03-04T17:24:03Z</time>
      </trkpt>
      <trkpt lat="60.0214172195" lon="23.537767685">
        <ele>53.4</ele>
        <time>2012-03-04T17:24:06Z</time>
      </trkpt>
      <trkpt lat="60.0214346539" lon="23.5377359176">
        <ele>53.4</ele>
        <time>2012-03-04T17:24:17Z</time>
      </trkpt>
      <trkpt lat="60.0214602187" lon="23.5376585527">
        <ele>52.6</ele>
        <time>2012-03-04T17:24:27Z</time>
      </trkpt>
      <trkpt lat="60.0214853644" lon="23.5375922519">
        <ele>52.2</ele>
        <time>2012-03-04T17:24:31Z</time>
      </trkpt>
      <trkpt lat="60.0214949198" lon="23.537500973">
        <ele>51.8</ele>
        <time>2012-03-04T17:24:35Z</time>
      </trkpt>
      <trkpt lat="60.0215591251" lon="23.5372552995">
        <ele>51.2</ele>
        <time>2012-03-04T17:24:42Z</time>
      </trkpt>
      <trkpt lat="60.0216295331" lon="23.5369193529">
        <ele>50.2</ele>
        <time>2012-03-04T17:24:48Z</time>
      </trkpt>
      <trkpt lat="60.0217637273" lon="23.5363749485">
        <ele>49.4</ele>
        <time>2012-03-04T17:24:58Z</time>
      </trkpt>
      <trkpt lat="60.0217767192" lon="23.53631594">
        <ele>49.4</ele>
        <time>2012-03-04T17:24:59Z</time>
      </trkpt>
      <trkpt lat="60.0218326265" lon="23.5360374932">
        <ele>49.4</ele>
        <time>2012-03-04T17:25:04Z</time>
      </trkpt>
      <trkpt lat="60.0218760448" lon="23.535677323">
        <ele>49.2</ele>
        <time>2012-03-04T17:25:10Z</time>
      </trkpt>
      <trkpt lat="60.0218831694" lon="23.5353139676">
        <ele>49.2</ele>
        <time>2012-03-04T17:25:16Z</time>
      </trkpt>
      <trkpt lat="60.0218612088" lon="23.5349445773">
        <ele>49.2</ele>
        <time>2012-03-04T17:25:22Z</time>
      </trkpt>
      <trkpt lat="60.0218624661" lon="23.5346370454">
        <ele>49.2</ele>
        <time>2012-03-04T17:25:27Z</time>
      </trkpt>
      <trkpt lat="60.0218669923" lon="23.5342990872">
        <ele>49.6</ele>
        <time>2012-03-04T17:25:33Z</time>
      </trkpt>
      <trkpt lat="60.0218818283" lon="23.534075039">
        <ele>50.2</ele>
        <time>2012-03-04T17:25:38Z</time>
      </trkpt>
      <trkpt lat="60.0218922218" lon="23.5338034654">
        <ele>50.6</ele>
        <time>2012-03-04T17:25:43Z</time>
      </trkpt>
      <trkpt lat="60.0219241569" lon="23.5334690276">
        <ele>50.8</ele>
        <time>2012-03-04T17:25:49Z</time>
      </trkpt>
      <trkpt lat="60.0219550861" lon="23.5331040797">
        <ele>51</ele>
        <time>2012-03-04T17:25:55Z</time>
      </trkpt>
      <trkpt lat="60.0219794774" lon="23.5327438256">
        <ele>51</ele>
        <time>2012-03-04T17:26:01Z</time>
      </trkpt>
      <trkpt lat="60.0220121668" lon="23.5323608566">
        <ele>51</ele>
        <time>2012-03-04T17:26:07Z</time>
      </trkpt>
      <trkpt lat="60.0220658948" lon="23.531978642">
        <ele>51.2</ele>
        <time>2012-03-04T17:26:13Z</time>
      </trkpt>
      <trkpt lat="60.0221339558" lon="23.5315776519">
        <ele>51.2</ele>
        <time>2012-03-04T17:26:19Z</time>
      </trkpt>
      <trkpt lat="60.0221673158" lon="23.5312884763">
        <ele>51.2</ele>
        <time>2012-03-04T17:26:24Z</time>
      </trkpt>
      <trkpt lat="60.0221594368" lon="23.531090915">
        <ele>51.2</ele>
        <time>2012-03-04T17:26:28Z</time>
      </trkpt>
      <trkpt lat="60.0220640508" lon="23.5307905077">
        <ele>51.2</ele>
        <time>2012-03-04T17:26:34Z</time>
      </trkpt>
      <trkpt lat="60.0219868535" lon="23.5305479355">
        <ele>51.2</ele>
        <time>2012-03-04T17:26:39Z</time>
      </trkpt>
      <trkpt lat="60.0219334608" lon="23.5302775354">
        <ele>51.2</ele>
        <time>2012-03-04T17:26:44Z</time>
      </trkpt>
      <trkpt lat="60.0219161941" lon="23.5298902916">
        <ele>50.6</ele>
        <time>2012-03-04T17:26:51Z</time>
      </trkpt>
      <trkpt lat="60.0219419265" lon="23.5295313787">
        <ele>49.8</ele>
        <time>2012-03-04T17:26:57Z</time>
      </trkpt>
      <trkpt lat="60.0220007674" lon="23.5291575459">
        <ele>49.6</ele>
        <time>2012-03-04T17:27:03Z</time>
      </trkpt>
      <trkpt lat="60.022052819" lon="23.5289237747">
        <ele>49.4</ele>
        <time>2012-03-04T17:27:09Z</time>
      </trkpt>
      <trkpt lat="60.0220714268" lon="23.5288462421">
        <ele>48.6</ele>
        <time>2012-03-04T17:27:12Z</time>
      </trkpt>
      <trkpt lat="60.0220707563" lon="23.5288008961">
        <ele>47.8</ele>
        <time>2012-03-04T17:27:19Z</time>
      </trkpt>
      <trkpt lat="60.022067655" lon="23.528808356">
        <ele>47</ele>
        <time>2012-03-04T17:27:22Z</time>
      </trkpt>
      <trkpt lat="60.0220161901" lon="23.5290869703">
        <ele>46</ele>
        <time>2012-03-04T17:27:27Z</time>
      </trkpt>
      <trkpt lat="60.0220021085" lon="23.5291517624">
        <ele>45.8</ele>
        <time>2012-03-04T17:27:28Z</time>
      </trkpt>
      <trkpt lat="60.0219494702" lon="23.5294475597">
        <ele>44.6</ele>
        <time>2012-03-04T17:27:33Z</time>
      </trkpt>
      <trkpt lat="60.0219095724" lon="23.5297401718">
        <ele>43.8</ele>
        <time>2012-03-04T17:27:38Z</time>
      </trkpt>
      <trkpt lat="60.0218973348" lon="23.5301117414">
        <ele>43.2</ele>
        <time>2012-03-04T17:27:44Z</time>
      </trkpt>
      <trkpt lat="60.0220171121" lon="23.5306865721">
        <ele>41.6</ele>
        <time>2012-03-04T17:27:54Z</time>
      </trkpt>
      <trkpt lat="60.0221004282" lon="23.5310321578">
        <ele>41.2</ele>
        <time>2012-03-04T17:28:00Z</time>
      </trkpt>
      <trkpt lat="60.022139907" lon="23.5312120334">
        <ele>41</ele>
        <time>2012-03-04T17:28:03Z</time>
      </trkpt>
      <trkpt lat="60.0221176111" lon="23.5315334793">
        <ele>40.8</ele>
        <time>2012-03-04T17:28:08Z</time>
      </trkpt>
      <trkpt lat="60.0220777133" lon="23.5317714414">
        <ele>41.4</ele>
        <time>2012-03-04T17:28:12Z</time>
      </trkpt>
      <trkpt lat="60.0220370611" lon="23.5320477088">
        <ele>42</ele>
        <time>2012-03-04T17:28:17Z</time>
      </trkpt>
      <trkpt lat="60.0219942295" lon="23.5323536482">
        <ele>42.2</ele>
        <time>2012-03-04T17:28:22Z</time>
      </trkpt>
      <trkpt lat="60.0219568463" lon="23.5327308337">
        <ele>43.4</ele>
        <time>2012-03-04T17:28:28Z</time>
      </trkpt>
      <trkpt lat="60.021928264" lon="23.5330600747">
        <ele>44</ele>
        <time>2012-03-04T17:28:33Z</time>
      </trkpt>
      <trkpt lat="60.021897251" lon="23.5334445525">
        <ele>44.2</ele>
        <time>2012-03-04T17:28:39Z</time>
      </trkpt>
      <trkpt lat="60.0218709318" lon="23.5338426089">
        <ele>45.2</ele>
        <time>2012-03-04T17:28:45Z</time>
      </trkpt>
      <trkpt lat="60.0218628852" lon="23.5342363068">
        <ele>46</ele>
        <time>2012-03-04T17:28:51Z</time>
      </trkpt>
      <trkpt lat="60.0218683334" lon="23.5346590898">
        <ele>46.4</ele>
        <time>2012-03-04T17:28:58Z</time>
      </trkpt>
      <trkpt lat="60.0218786431" lon="23.5349780211">
        <ele>46.6</ele>
        <time>2012-03-04T17:29:03Z</time>
      </trkpt>
      <trkpt lat="60.021891216" lon="23.5353037417">
        <ele>46.6</ele>
        <time>2012-03-04T17:29:08Z</time>
      </trkpt>
      <trkpt lat="60.0219015257" lon="23.5357016305">
        <ele>46.6</ele>
        <time>2012-03-04T17:29:14Z</time>
      </trkpt>
      <trkpt lat="60.0218650645" lon="23.536073284">
        <ele>46.8</ele>
        <time>2012-03-04T17:29:20Z</time>
      </trkpt>
      <trkpt lat="60.0217820837" lon="23.5364282574">
        <ele>46.8</ele>
        <time>2012-03-04T17:29:26Z</time>
      </trkpt>
      <trkpt lat="60.0217056407" lon="23.5367726697">
        <ele>46.8</ele>
        <time>2012-03-04T17:29:32Z</time>
      </trkpt>
      <trkpt lat="60.0216365739" lon="23.5370393818">
        <ele>46.8</ele>
        <time>2012-03-04T17:29:37Z</time>
      </trkpt>
      <trkpt lat="60.0215703569" lon="23.5372986339">
        <ele>47.4</ele>
        <time>2012-03-04T17:29:42Z</time>
      </trkpt>
      <trkpt lat="60.0214779045" lon="23.5376303895">
        <ele>48</ele>
        <time>2012-03-04T17:29:48Z</time>
      </trkpt>
      <trkpt lat="60.0213823508" lon="23.5379458842">
        <ele>48.4</ele>
        <time>2012-03-04T17:29:54Z</time>
      </trkpt>
      <trkpt lat="60.0212432951" lon="23.538102039">
        <ele>48.6</ele>
        <time>2012-03-04T17:29:59Z</time>
      </trkpt>
      <trkpt lat="60.0211672713" lon="23.5381857742">
        <ele>48.6</ele>
        <time>2012-03-04T17:30:02Z</time>
      </trkpt>
      <trkpt lat="60.0210986235" lon="23.5382547573">
        <ele>48.6</ele>
        <time>2012-03-04T17:30:05Z</time>
      </trkpt>
      <trkpt lat="60.0210393635" lon="23.538321561">
        <ele>49.2</ele>
        <time>2012-03-04T17:30:08Z</time>
      </trkpt>
      <trkpt lat="60.0210948517" lon="23.538277556">
        <ele>49.8</ele>
        <time>2012-03-04T17:30:13Z</time>
      </trkpt>
      <trkpt lat="60.0211708755" lon="23.5381845169">
        <ele>50.4</ele>
        <time>2012-03-04T17:30:20Z</time>
      </trkpt>
      <trkpt lat="60.021211863" lon="23.5381430265">
        <ele>50.4</ele>
        <time>2012-03-04T17:30:23Z</time>
      </trkpt>
      <trkpt lat="60.0212743082" lon="23.5380426952">
        <ele>50.6</ele>
        <time>2012-03-04T17:30:28Z</time>
      </trkpt>
      <trkpt lat="60.0213152956" lon="23.5379877099">
        <ele>50.6</ele>
        <time>2012-03-04T17:30:30Z</time>
      </trkpt>
      <trkpt lat="60.0214315526" lon="23.5377878016">
        <ele>50.8</ele>
        <time>2012-03-04T17:30:36Z</time>
      </trkpt>
      <trkpt lat="60.021504056" lon="23.5374705467">
        <ele>50.8</ele>
        <time>2012-03-04T17:30:42Z</time>
      </trkpt>
      <trkpt lat="60.0215589575" lon="23.5371983864">
        <ele>50.8</ele>
        <time>2012-03-04T17:30:47Z</time>
      </trkpt>
      <trkpt lat="60.0216591212" lon="23.5368316783">
        <ele>50.8</ele>
        <time>2012-03-04T17:30:54Z</time>
      </trkpt>
      <trkpt lat="60.0217327981" lon="23.5365130823">
        <ele>50.8</ele>
        <time>2012-03-04T17:31:00Z</time>
      </trkpt>
      <trkpt lat="60.0218234902" lon="23.5361618806">
        <ele>50.8</ele>
        <time>2012-03-04T17:31:06Z</time>
      </trkpt>
      <trkpt lat="60.0218778888" lon="23.5359228289">
        <ele>50.8</ele>
        <time>2012-03-04T17:31:11Z</time>
      </trkpt>
      <trkpt lat="60.0218952393" lon="23.5356551948">
        <ele>50.8</ele>
        <time>2012-03-04T17:31:16Z</time>
      </trkpt>
      <trkpt lat="60.0218859354" lon="23.5352556296">
        <ele>50.8</ele>
        <time>2012-03-04T17:31:23Z</time>
      </trkpt>
      <trkpt lat="60.021868082" lon="23.5349925218">
        <ele>50.8</ele>
        <time>2012-03-04T17:31:28Z</time>
      </trkpt>
      <trkpt lat="60.0218552576" lon="23.5347093812">
        <ele>50.8</ele>
        <time>2012-03-04T17:31:33Z</time>
      </trkpt>
      <trkpt lat="60.0218465405" lon="23.5343552459">
        <ele>50.8</ele>
        <time>2012-03-04T17:31:39Z</time>
      </trkpt>
      <trkpt lat="60.0218576884" lon="23.5339838439">
        <ele>50.8</ele>
        <time>2012-03-04T17:31:45Z</time>
      </trkpt>
      <trkpt lat="60.0218767991" lon="23.5336199018">
        <ele>50.8</ele>
        <time>2012-03-04T17:31:51Z</time>
      </trkpt>
      <trkpt lat="60.0219123384" lon="23.5332302273">
        <ele>50.8</ele>
        <time>2012-03-04T17:31:58Z</time>
      </trkpt>
      <trkpt lat="60.0219394957" lon="23.5328878267">
        <ele>50.8</ele>
        <time>2012-03-04T17:32:04Z</time>
      </trkpt>
      <trkpt lat="60.0219656473" lon="23.5325819712">
        <ele>50.8</ele>
        <time>2012-03-04T17:32:09Z</time>
      </trkpt>
      <trkpt lat="60.0220155196" lon="23.5322357987">
        <ele>50.8</ele>
        <time>2012-03-04T17:32:15Z</time>
      </trkpt>
      <trkpt lat="60.0220653919" lon="23.531969841">
        <ele>50.8</ele>
        <time>2012-03-04T17:32:20Z</time>
      </trkpt>
      <trkpt lat="60.022131106" lon="23.531652167">
        <ele>50.8</ele>
        <time>2012-03-04T17:32:26Z</time>
      </trkpt>
      <trkpt lat="60.0221662261" lon="23.5313802582">
        <ele>50.6</ele>
        <time>2012-03-04T17:32:31Z</time>
      </trkpt>
      <trkpt lat="60.0221500491" lon="23.5311154739">
        <ele>49.8</ele>
        <time>2012-03-04T17:32:36Z</time>
      </trkpt>
      <trkpt lat="60.0220645537" lon="23.5308305732">
        <ele>49.4</ele>
        <time>2012-03-04T17:32:42Z</time>
      </trkpt>
      <trkpt lat="60.0219855962" lon="23.5305535514">
        <ele>49</ele>
        <time>2012-03-04T17:32:48Z</time>
      </trkpt>
      <trkpt lat="60.0219397472" lon="23.5302251485">
        <ele>48</ele>
        <time>2012-03-04T17:32:55Z</time>
      </trkpt>
      <trkpt lat="60.0219346342" lon="23.529963298">
        <ele>47.4</ele>
        <time>2012-03-04T17:33:01Z</time>
      </trkpt>
      <trkpt lat="60.0219472909" lon="23.5297750405">
        <ele>46.2</ele>
        <time>2012-03-04T17:33:08Z</time>
      </trkpt>
      <trkpt lat="60.0219510628" lon="23.5297304488">
        <ele>45.4</ele>
        <time>2012-03-04T17:33:14Z</time>
      </trkpt>
      <trkpt lat="60.0219421779" lon="23.5296707696">
        <ele>43.6</ele>
        <time>2012-03-04T17:33:23Z</time>
      </trkpt>
      <trkpt lat="60.0219484644" lon="23.5295932371">
        <ele>43.4</ele>
        <time>2012-03-04T17:33:26Z</time>
      </trkpt>
      <trkpt lat="60.0219850095" lon="23.5294044767">
        <ele>42.2</ele>
        <time>2012-03-04T17:33:33Z</time>
      </trkpt>
      <trkpt lat="60.0220171121" lon="23.529231139">
        <ele>41.4</ele>
        <time>2012-03-04T17:33:39Z</time>
      </trkpt>
      <trkpt lat="60.0220389051" lon="23.5291432129">
        <ele>40.6</ele>
        <time>2012-03-04T17:33:42Z</time>
      </trkpt>
      <trkpt lat="60.0220686608" lon="23.5289818613">
        <ele>39.4</ele>
        <time>2012-03-04T17:33:48Z</time>
      </trkpt>
      <trkpt lat="60.0220849217" lon="23.5288847151">
        <ele>37.8</ele>
        <time>2012-03-04T17:33:55Z</time>
      </trkpt>
      <trkpt lat="60.0219962412" lon="23.5293766488">
        <ele>35.6</ele>
        <time>2012-03-04T17:34:05Z</time>
      </trkpt>
      <trkpt lat="60.0219338799" lon="23.5297773874">
        <ele>34.4</ele>
        <time>2012-03-04T17:34:12Z</time>
      </trkpt>
      <trkpt lat="60.0219188763" lon="23.5301339534">
        <ele>33.4</ele>
        <time>2012-03-04T17:34:18Z</time>
      </trkpt>
      <trkpt lat="60.0219653958" lon="23.530437462">
        <ele>32.8</ele>
        <time>2012-03-04T17:34:24Z</time>
      </trkpt>
      <trkpt lat="60.0220746958" lon="23.5307658649">
        <ele>32.6</ele>
        <time>2012-03-04T17:34:30Z</time>
      </trkpt>
      <trkpt lat="60.0221676511" lon="23.531080689">
        <ele>32.4</ele>
        <time>2012-03-04T17:34:36Z</time>
      </trkpt>
      <trkpt lat="60.0221876" lon="23.5313236803">
        <ele>32.2</ele>
        <time>2012-03-04T17:34:40Z</time>
      </trkpt>
      <trkpt lat="60.0221535695" lon="23.5316228303">
        <ele>32.4</ele>
        <time>2012-03-04T17:34:45Z</time>
      </trkpt>
      <trkpt lat="60.0220901185" lon="23.5320095712">
        <ele>33.4</ele>
        <time>2012-03-04T17:34:52Z</time>
      </trkpt>
      <trkpt lat="60.0220310261" lon="23.5324049454">
        <ele>33.8</ele>
        <time>2012-03-04T17:34:59Z</time>
      </trkpt>
      <trkpt lat="60.0220043716" lon="23.5327610924">
        <ele>34.6</ele>
        <time>2012-03-04T17:35:05Z</time>
      </trkpt>
      <trkpt lat="60.0219691677" lon="23.5331330811">
        <ele>35.4</ele>
        <time>2012-03-04T17:35:11Z</time>
      </trkpt>
      <trkpt lat="60.0219450278" lon="23.5335140384">
        <ele>35.8</ele>
        <time>2012-03-04T17:35:17Z</time>
      </trkpt>
      <trkpt lat="60.0219297727" lon="23.5338751307">
        <ele>36.2</ele>
        <time>2012-03-04T17:35:23Z</time>
      </trkpt>
      <trkpt lat="60.0219103267" lon="23.5341731072">
        <ele>37</ele>
        <time>2012-03-04T17:35:28Z</time>
      </trkpt>
      <trkpt lat="60.0219039565" lon="23.5345249794">
        <ele>37.6</ele>
        <time>2012-03-04T17:35:34Z</time>
      </trkpt>
      <trkpt lat="60.0219225643" lon="23.5349112173">
        <ele>38.6</ele>
        <time>2012-03-04T17:35:40Z</time>
      </trkpt>
      <trkpt lat="60.0219367297" lon="23.535311956">
        <ele>39.4</ele>
        <time>2012-03-04T17:35:46Z</time>
      </trkpt>
      <trkpt lat="60.0219335446" lon="23.5356962661">
        <ele>40.8</ele>
        <time>2012-03-04T17:35:52Z</time>
      </trkpt>
      <trkpt lat="60.0219177028" lon="23.5359338091">
        <ele>41.4</ele>
        <time>2012-03-04T17:35:56Z</time>
      </trkpt>
      <trkpt lat="60.0218381586" lon="23.5363250762">
        <ele>42</ele>
        <time>2012-03-04T17:36:03Z</time>
      </trkpt>
      <trkpt lat="60.021750903" lon="23.5366679798">
        <ele>42.2</ele>
        <time>2012-03-04T17:36:09Z</time>
      </trkpt>
      <trkpt lat="60.0216680898" lon="23.5369831392">
        <ele>43</ele>
        <time>2012-03-04T17:36:15Z</time>
      </trkpt>
      <trkpt lat="60.0215810019" lon="23.5373293955">
        <ele>43.8</ele>
        <time>2012-03-04T17:36:21Z</time>
      </trkpt>
      <trkpt lat="60.0214987754" lon="23.5376764062">
        <ele>44.2</ele>
        <time>2012-03-04T17:36:27Z</time>
      </trkpt>
      <trkpt lat="60.0213953428" lon="23.5379337305">
        <ele>44.2</ele>
        <time>2012-03-04T17:36:32Z</time>
      </trkpt>
      <trkpt lat="60.0212564547" lon="23.5381010332">
        <ele>44.4</ele>
        <time>2012-03-04T17:36:37Z</time>
      </trkpt>
      <trkpt lat="60.0210844581" lon="23.5382719402">
        <ele>44.4</ele>
        <time>2012-03-04T17:36:43Z</time>
      </trkpt>
      <trkpt lat="60.021075238" lon="23.5382820823">
        <ele>44.4</ele>
        <time>2012-03-04T17:36:46Z</time>
      </trkpt>
      <trkpt lat="60.0211392757" lon="23.5381961678">
        <ele>44.4</ele>
        <time>2012-03-04T17:36:52Z</time>
      </trkpt>
      <trkpt lat="60.0211506751" lon="23.5381781467">
        <ele>44.4</ele>
        <time>2012-03-04T17:36:53Z</time>
      </trkpt>
      <trkpt lat="60.0212427084" lon="23.5380773963">
        <ele>44.6</ele>
        <time>2012-03-04T17:37:00Z</time>
      </trkpt>
      <trkpt lat="60.0212848693" lon="23.5380005342">
        <ele>44.6</ele>
        <time>2012-03-04T17:37:04Z</time>
      </trkpt>
      <trkpt lat="60.021339687" lon="23.5379301263">
        <ele>44.6</ele>
        <time>2012-03-04T17:37:08Z</time>
      </trkpt>
      <trkpt lat="60.0214924052" lon="23.5376076746">
        <ele>44.6</ele>
        <time>2012-03-04T17:37:22Z</time>
      </trkpt>
      <trkpt lat="60.0215333089" lon="23.5374461554">
        <ele>44.2</ele>
        <time>2012-03-04T17:37:27Z</time>
      </trkpt>
      <trkpt lat="60.0215848575" lon="23.537219425">
        <ele>43.4</ele>
        <time>2012-03-04T17:37:32Z</time>
      </trkpt>
      <trkpt lat="60.0216591212" lon="23.5369340213">
        <ele>43</ele>
        <time>2012-03-04T17:37:38Z</time>
      </trkpt>
      <trkpt lat="60.0217299482" lon="23.5366157605">
        <ele>42.8</ele>
        <time>2012-03-04T17:37:44Z</time>
      </trkpt>
      <trkpt lat="60.0218015297" lon="23.5362866033">
        <ele>42.6</ele>
        <time>2012-03-04T17:37:50Z</time>
      </trkpt>
      <trkpt lat="60.0218697583" lon="23.535970019">
        <ele>42.4</ele>
        <time>2012-03-04T17:37:56Z</time>
      </trkpt>
      <trkpt lat="60.02189306" lon="23.5355788357">
        <ele>42.4</ele>
        <time>2012-03-04T17:38:03Z</time>
      </trkpt>
      <trkpt lat="60.0218854325" lon="23.5352811944">
        <ele>42.4</ele>
        <time>2012-03-04T17:38:08Z</time>
      </trkpt>
      <trkpt lat="60.0218830856" lon="23.5349397158">
        <ele>42.6</ele>
        <time>2012-03-04T17:38:14Z</time>
      </trkpt>
      <trkpt lat="60.0218812415" lon="23.5345608539">
        <ele>43.6</ele>
        <time>2012-03-04T17:38:21Z</time>
      </trkpt>
      <trkpt lat="60.0218800681" lon="23.5342405815">
        <ele>44.2</ele>
        <time>2012-03-04T17:38:27Z</time>
      </trkpt>
      <trkpt lat="60.0218898749" lon="23.5339970873">
        <ele>45</ele>
        <time>2012-03-04T17:38:31Z</time>
      </trkpt>
      <trkpt lat="60.021910662" lon="23.5337177186">
        <ele>45.6</ele>
        <time>2012-03-04T17:38:36Z</time>
      </trkpt>
      <trkpt lat="60.0219364783" lon="23.5333811015">
        <ele>46.2</ele>
        <time>2012-03-04T17:38:42Z</time>
      </trkpt>
      <trkpt lat="60.0219797289" lon="23.5327763474">
        <ele>46.4</ele>
        <time>2012-03-04T17:38:53Z</time>
      </trkpt>
      <trkpt lat="60.0220078082" lon="23.5324361261">
        <ele>46.6</ele>
        <time>2012-03-04T17:38:59Z</time>
      </trkpt>
      <trkpt lat="60.0220492148" lon="23.5321459447">
        <ele>46.6</ele>
        <time>2012-03-04T17:39:04Z</time>
      </trkpt>
      <trkpt lat="60.0221103189" lon="23.5317463795">
        <ele>46.6</ele>
        <time>2012-03-04T17:39:11Z</time>
      </trkpt>
      <trkpt lat="60.022151474" lon="23.5314483192">
        <ele>46.6</ele>
        <time>2012-03-04T17:39:16Z</time>
      </trkpt>
      <trkpt lat="60.0221647174" lon="23.5312814356">
        <ele>46</ele>
        <time>2012-03-04T17:39:19Z</time>
      </trkpt>
      <trkpt lat="60.022094058" lon="23.5308690461">
        <ele>45.2</ele>
        <time>2012-03-04T17:39:27Z</time>
      </trkpt>
      <trkpt lat="60.021998672" lon="23.5306121408">
        <ele>44.2</ele>
        <time>2012-03-04T17:39:33Z</time>
      </trkpt>
      <trkpt lat="60.0219498055" lon="23.5303558223">
        <ele>43.4</ele>
        <time>2012-03-04T17:39:38Z</time>
      </trkpt>
      <trkpt lat="60.0219156073" lon="23.5300877692">
        <ele>42.8</ele>
        <time>2012-03-04T17:39:43Z</time>
      </trkpt>
      <trkpt lat="60.02190974" lon="23.5297429378">
        <ele>41.6</ele>
        <time>2012-03-04T17:39:49Z</time>
      </trkpt>
      <trkpt lat="60.0219317006" lon="23.5295041375">
        <ele>41.2</ele>
        <time>2012-03-04T17:39:53Z</time>
      </trkpt>
      <trkpt lat="60.0219938105" lon="23.5291698673">
        <ele>39.8</ele>
        <time>2012-03-04T17:39:59Z</time>
      </trkpt>
      <trkpt lat="60.0220208002" lon="23.5290394449">
        <ele>39</ele>
        <time>2012-03-04T17:40:03Z</time>
      </trkpt>
      <trkpt lat="60.0220665653" lon="23.5288571386">
        <ele>36.4</ele>
        <time>2012-03-04T17:40:12Z</time>
      </trkpt>
      <trkpt lat="60.0220714268" lon="23.5288394528">
        <ele>34.6</ele>
        <time>2012-03-04T17:40:19Z</time>
      </trkpt>
      <trkpt lat="60.022077378" lon="23.5288081883">
        <ele>33</ele>
        <time>2012-03-04T17:40:26Z</time>
      </trkpt>
      <trkpt lat="60.0220733547" lon="23.5287964537">
        <ele>29.8</ele>
        <time>2012-03-04T17:40:55Z</time>
      </trkpt>
      <trkpt lat="60.0220535734" lon="23.5289161472">
        <ele>28.4</ele>
        <time>2012-03-04T17:41:06Z</time>
      </trkpt>
      <trkpt lat="60.0219952354" lon="23.5292300493">
        <ele>28</ele>
        <time>2012-03-04T17:41:11Z</time>
      </trkpt>
      <trkpt lat="60.0219402501" lon="23.5295499865">
        <ele>27.8</ele>
        <time>2012-03-04T17:41:16Z</time>
      </trkpt>
      <trkpt lat="60.0219218099" lon="23.5298513158">
        <ele>27.6</ele>
        <time>2012-03-04T17:41:21Z</time>
      </trkpt>
      <trkpt lat="60.0219281802" lon="23.5301456881">
        <ele>27.6</ele>
        <time>2012-03-04T17:41:26Z</time>
      </trkpt>
      <trkpt lat="60.021970844" lon="23.5303873383">
        <ele>27.6</ele>
        <time>2012-03-04T17:41:30Z</time>
      </trkpt>
      <trkpt lat="60.0220576805" lon="23.5306925233">
        <ele>27.6</ele>
        <time>2012-03-04T17:41:35Z</time>
      </trkpt>
      <trkpt lat="60.0221689083" lon="23.5310151426">
        <ele>27.6</ele>
        <time>2012-03-04T17:41:41Z</time>
      </trkpt>
      <trkpt lat="60.0222044476" lon="23.5312873867">
        <ele>27.6</ele>
        <time>2012-03-04T17:41:45Z</time>
      </trkpt>
      <trkpt lat="60.0221549944" lon="23.531675301">
        <ele>27.6</ele>
        <time>2012-03-04T17:41:51Z</time>
      </trkpt>
      <trkpt lat="60.022101015" lon="23.5319621297">
        <ele>27.6</ele>
        <time>2012-03-04T17:41:56Z</time>
      </trkpt>
      <trkpt lat="60.022048209" lon="23.5323145885">
        <ele>27.8</ele>
        <time>2012-03-04T17:42:02Z</time>
      </trkpt>
      <trkpt lat="60.0220088141" lon="23.5326275687">
        <ele>28.6</ele>
        <time>2012-03-04T17:42:07Z</time>
      </trkpt>
      <trkpt lat="60.021972269" lon="23.5330120464">
        <ele>29.4</ele>
        <time>2012-03-04T17:42:13Z</time>
      </trkpt>
      <trkpt lat="60.021960199" lon="23.5331361824">
        <ele>29.8</ele>
        <time>2012-03-04T17:42:15Z</time>
      </trkpt>
      <trkpt lat="60.0219455307" lon="23.5333264515">
        <ele>30.2</ele>
        <time>2012-03-04T17:42:18Z</time>
      </trkpt>
      <trkpt lat="60.0219223967" lon="23.5337094205">
        <ele>30.8</ele>
        <time>2012-03-04T17:42:24Z</time>
      </trkpt>
      <trkpt lat="60.0218903778" lon="23.5341117517">
        <ele>31.8</ele>
        <time>2012-03-04T17:42:30Z</time>
      </trkpt>
      <trkpt lat="60.0218845105" lon="23.5344186969">
        <ele>32.6</ele>
        <time>2012-03-04T17:42:35Z</time>
      </trkpt>
      <trkpt lat="60.0218969995" lon="23.5348043481">
        <ele>33.4</ele>
        <time>2012-03-04T17:42:41Z</time>
      </trkpt>
      <trkpt lat="60.0219184572" lon="23.5353681147">
        <ele>34.8</ele>
        <time>2012-03-04T17:42:49Z</time>
      </trkpt>
      <trkpt lat="60.0219109973" lon="23.5357763132">
        <ele>35.2</ele>
        <time>2012-03-04T17:42:55Z</time>
      </trkpt>
      <trkpt lat="60.021908818" lon="23.5358266885">
        <ele>35.2</ele>
        <time>2012-03-04T17:42:56Z</time>
      </trkpt>
      <trkpt lat="60.0218616279" lon="23.5360967533">
        <ele>36</ele>
        <time>2012-03-04T17:43:00Z</time>
      </trkpt>
      <trkpt lat="60.0217649846" lon="23.5364839971">
        <ele>37</ele>
        <time>2012-03-04T17:43:07Z</time>
      </trkpt>
      <trkpt lat="60.0217093288" lon="23.5367159242">
        <ele>37.2</ele>
        <time>2012-03-04T17:43:11Z</time>
      </trkpt>
      <trkpt lat="60.0216373282" lon="23.5370606718">
        <ele>38.2</ele>
        <time>2012-03-04T17:43:17Z</time>
      </trkpt>
      <trkpt lat="60.0215689319" lon="23.5373482548">
        <ele>38.8</ele>
        <time>2012-03-04T17:43:22Z</time>
      </trkpt>
      <trkpt lat="60.0214841071" lon="23.5376919965">
        <ele>39.2</ele>
        <time>2012-03-04T17:43:28Z</time>
      </trkpt>
      <trkpt lat="60.0213687722" lon="23.5379557749">
        <ele>40.4</ele>
        <time>2012-03-04T17:43:34Z</time>
      </trkpt>
      <trkpt lat="60.0212393556" lon="23.5381073196">
        <ele>41</ele>
        <time>2012-03-04T17:43:39Z</time>
      </trkpt>
      <trkpt lat="60.021104407" lon="23.5382500634">
        <ele>41.4</ele>
        <time>2012-03-04T17:43:44Z</time>
      </trkpt>
      <trkpt lat="60.0211010543" lon="23.5382725269">
        <ele>41.6</ele>
        <time>2012-03-04T17:43:49Z</time>
      </trkpt>
      <trkpt lat="60.0211222605" lon="23.5382795677">
        <ele>42.6</ele>
        <time>2012-03-04T17:43:55Z</time>
      </trkpt>
      <trkpt lat="60.0211328217" lon="23.538259032">
        <ele>42.6</ele>
        <time>2012-03-04T17:43:56Z</time>
      </trkpt>
      <trkpt lat="60.0211523515" lon="23.5382036277">
        <ele>43</ele>
        <time>2012-03-04T17:43:59Z</time>
      </trkpt>
      <trkpt lat="60.021234997" lon="23.5380861134">
        <ele>43.6</ele>
        <time>2012-03-04T17:44:07Z</time>
      </trkpt>
      <trkpt lat="60.0213055726" lon="23.5379963433">
        <ele>43.8</ele>
        <time>2012-03-04T17:44:13Z</time>
      </trkpt>
      <trkpt lat="60.0213297125" lon="23.5379639891">
        <ele>43.8</ele>
        <time>2012-03-04T17:44:15Z</time>
      </trkpt>
      <trkpt lat="60.0214256853" lon="23.5378363328">
        <ele>43.4</ele>
        <time>2012-03-04T17:44:23Z</time>
      </trkpt>
      <trkpt lat="60.0214608892" lon="23.5377435452">
        <ele>43</ele>
        <time>2012-03-04T17:44:27Z</time>
      </trkpt>
      <trkpt lat="60.0214908965" lon="23.5375848758">
        <ele>42.4</ele>
        <time>2012-03-04T17:44:33Z</time>
      </trkpt>
      <trkpt lat="60.0215044751" lon="23.5375360093">
        <ele>42.4</ele>
        <time>2012-03-04T17:44:35Z</time>
      </trkpt>
      <trkpt lat="60.0215461332" lon="23.5373372745">
        <ele>42</ele>
        <time>2012-03-04T17:44:42Z</time>
      </trkpt>
      <trkpt lat="60.0215526711" lon="23.5373081055">
        <ele>42</ele>
        <time>2012-03-04T17:44:43Z</time>
      </trkpt>
      <trkpt lat="60.02157262" lon="23.537190256">
        <ele>42</ele>
        <time>2012-03-04T17:44:47Z</time>
      </trkpt>
      <trkpt lat="60.0216358195" lon="23.5369079536">
        <ele>41.6</ele>
        <time>2012-03-04T17:44:57Z</time>
      </trkpt>
      <trkpt lat="60.0216607137" lon="23.5367431654">
        <ele>40.8</ele>
        <time>2012-03-04T17:45:03Z</time>
      </trkpt>
      <trkpt lat="60.0216899666" lon="23.5365990805">
        <ele>40.4</ele>
        <time>2012-03-04T17:45:08Z</time>
      </trkpt>
      <trkpt lat="60.0217270984" lon="23.5364185344">
        <ele>40</ele>
        <time>2012-03-04T17:45:15Z</time>
      </trkpt>
      <trkpt lat="60.0217747914" lon="23.536222398">
        <ele>39.2</ele>
        <time>2012-03-04T17:45:22Z</time>
      </trkpt>
      <trkpt lat="60.0218133481" lon="23.5360508205">
        <ele>38.4</ele>
        <time>2012-03-04T17:45:28Z</time>
      </trkpt>
      <trkpt lat="60.0218488874" lon="23.535854684">
        <ele>38.2</ele>
        <time>2012-03-04T17:45:35Z</time>
      </trkpt>
      <trkpt lat="60.0218597001" lon="23.5356738026">
        <ele>38</ele>
        <time>2012-03-04T17:45:41Z</time>
      </trkpt>
      <trkpt lat="60.0218597839" lon="23.5354578849">
        <ele>37.8</ele>
        <time>2012-03-04T17:45:48Z</time>
      </trkpt>
      <trkpt lat="60.0218546709" lon="23.535224868">
        <ele>37.8</ele>
        <time>2012-03-04T17:45:56Z</time>
      </trkpt>
      <trkpt lat="60.0218513182" lon="23.5349243769">
        <ele>37.8</ele>
        <time>2012-03-04T17:46:07Z</time>
      </trkpt>
      <trkpt lat="60.0218511505" lon="23.5348945374">
        <ele>37.8</ele>
        <time>2012-03-04T17:46:14Z</time>
      </trkpt>
      <trkpt lat="60.0218621308" lon="23.5348287395">
        <ele>37.8</ele>
        <time>2012-03-04T17:46:27Z</time>
      </trkpt>
      <trkpt lat="60.0218593648" lon="23.5346891808">
        <ele>37.8</ele>
        <time>2012-03-04T17:46:34Z</time>
      </trkpt>
      <trkpt lat="60.0218658188" lon="23.5345818087">
        <ele>37.8</ele>
        <time>2012-03-04T17:46:49Z</time>
      </trkpt>
      <trkpt lat="60.0218643101" lon="23.5345471914">
        <ele>37.8</ele>
        <time>2012-03-04T17:46:50Z</time>
      </trkpt>
      <trkpt lat="60.0218602868" lon="23.5344181102">
        <ele>37.8</ele>
        <time>2012-03-04T17:46:53Z</time>
      </trkpt>
      <trkpt lat="60.0218650645" lon="23.5339759649">
        <ele>37.8</ele>
        <time>2012-03-04T17:47:01Z</time>
      </trkpt>
      <trkpt lat="60.0218809063" lon="23.5336870409">
        <ele>37.8</ele>
        <time>2012-03-04T17:47:06Z</time>
      </trkpt>
      <trkpt lat="60.0219016934" lon="23.5334520124">
        <ele>37.8</ele>
        <time>2012-03-04T17:47:10Z</time>
      </trkpt>
      <trkpt lat="60.021931952" lon="23.5331857194">
        <ele>37.8</ele>
        <time>2012-03-04T17:47:15Z</time>
      </trkpt>
      <trkpt lat="60.0219610372" lon="23.5328376191">
        <ele>37.8</ele>
        <time>2012-03-04T17:47:21Z</time>
      </trkpt>
      <trkpt lat="60.0219973308" lon="23.5325102221">
        <ele>37.8</ele>
        <time>2012-03-04T17:47:27Z</time>
      </trkpt>
      <trkpt lat="60.022046365" lon="23.5321818192">
        <ele>37.8</ele>
        <time>2012-03-04T17:47:33Z</time>
      </trkpt>
      <trkpt lat="60.0220876039" lon="23.5318856867">
        <ele>37.8</ele>
        <time>2012-03-04T17:47:38Z</time>
      </trkpt>
      <trkpt lat="60.0221404937" lon="23.531551668">
        <ele>37.8</ele>
        <time>2012-03-04T17:47:44Z</time>
      </trkpt>
      <trkpt lat="60.0221775417" lon="23.5313477364">
        <ele>37.8</ele>
        <time>2012-03-04T17:47:48Z</time>
      </trkpt>
      <trkpt lat="60.022153318" lon="23.5310464909">
        <ele>37.4</ele>
        <time>2012-03-04T17:47:54Z</time>
      </trkpt>
      <trkpt lat="60.0220751149" lon="23.530829735">
        <ele>36.6</ele>
        <time>2012-03-04T17:47:59Z</time>
      </trkpt>
      <trkpt lat="60.0219748674" lon="23.5304885916">
        <ele>36.2</ele>
        <time>2012-03-04T17:48:06Z</time>
      </trkpt>
      <trkpt lat="60.021930108" lon="23.5301756953">
        <ele>36</ele>
        <time>2012-03-04T17:48:12Z</time>
      </trkpt>
      <trkpt lat="60.0219203012" lon="23.5298477954">
        <ele>34.8</ele>
        <time>2012-03-04T17:48:18Z</time>
      </trkpt>
      <trkpt lat="60.0219316168" lon="23.5296383317">
        <ele>34.4</ele>
        <time>2012-03-04T17:48:22Z</time>
      </trkpt>
      <trkpt lat="60.0219607019" lon="23.5294171334">
        <ele>33.2</ele>
        <time>2012-03-04T17:48:27Z</time>
      </trkpt>
      <trkpt lat="60.0220096522" lon="23.5291661793">
        <ele>32.2</ele>
        <time>2012-03-04T17:48:36Z</time>
      </trkpt>
      <trkpt lat="60.0220274219" lon="23.5289992118">
        <ele>31.4</ele>
        <time>2012-03-04T17:48:42Z</time>
      </trkpt>
      <trkpt lat="60.0220710916" lon="23.5288536182">
        <ele>30.4</ele>
        <time>2012-03-04T17:48:49Z</time>
      </trkpt>
      <trkpt lat="60.022072265" lon="23.5288315738">
        <ele>30</ele>
        <time>2012-03-04T17:48:55Z</time>
      </trkpt>
      <trkpt lat="60.0220283439" lon="23.5291257785">
        <ele>29.8</ele>
        <time>2012-03-04T17:49:00Z</time>
      </trkpt>
      <trkpt lat="60.0219543317" lon="23.5295660797">
        <ele>29.6</ele>
        <time>2012-03-04T17:49:07Z</time>
      </trkpt>
      <trkpt lat="60.0219336284" lon="23.5299362244">
        <ele>29.6</ele>
        <time>2012-03-04T17:49:13Z</time>
      </trkpt>
      <trkpt lat="60.0219561757" lon="23.5302755237">
        <ele>29.6</ele>
        <time>2012-03-04T17:49:19Z</time>
      </trkpt>
      <trkpt lat="60.0220235662" lon="23.5305831395">
        <ele>29.6</ele>
        <time>2012-03-04T17:49:24Z</time>
      </trkpt>
      <trkpt lat="60.0220623744" lon="23.5307024977">
        <ele>29.6</ele>
        <time>2012-03-04T17:49:26Z</time>
      </trkpt>
      <trkpt lat="60.0221394041" lon="23.5309509372">
        <ele>29.6</ele>
        <time>2012-03-04T17:49:30Z</time>
      </trkpt>
      <trkpt lat="60.022184331" lon="23.5313336548">
        <ele>29.6</ele>
        <time>2012-03-04T17:49:36Z</time>
      </trkpt>
      <trkpt lat="60.0221588501" lon="23.5315893866">
        <ele>29.6</ele>
        <time>2012-03-04T17:49:40Z</time>
      </trkpt>
      <trkpt lat="60.022097746" lon="23.5319710145">
        <ele>29.6</ele>
        <time>2012-03-04T17:49:46Z</time>
      </trkpt>
      <trkpt lat="60.0220432637" lon="23.5323404048">
        <ele>30</ele>
        <time>2012-03-04T17:49:52Z</time>
      </trkpt>
      <trkpt lat="60.021999594" lon="23.5327176741">
        <ele>30.8</ele>
        <time>2012-03-04T17:49:58Z</time>
      </trkpt>
      <trkpt lat="60.021960199" lon="23.5330961169">
        <ele>31.2</ele>
        <time>2012-03-04T17:50:04Z</time>
      </trkpt>
      <trkpt lat="60.0219265038" lon="23.5335091769">
        <ele>32.4</ele>
        <time>2012-03-04T17:50:10Z</time>
      </trkpt>
      <trkpt lat="60.0219021125" lon="23.5338556847">
        <ele>32.8</ele>
        <time>2012-03-04T17:50:15Z</time>
      </trkpt>
      <trkpt lat="60.0218776373" lon="23.534248712">
        <ele>33.6</ele>
        <time>2012-03-04T17:50:21Z</time>
      </trkpt>
      <trkpt lat="60.0218679981" lon="23.5345837365">
        <ele>34.6</ele>
        <time>2012-03-04T17:50:26Z</time>
      </trkpt>
      <trkpt lat="60.0218839237" lon="23.5349531268">
        <ele>35.4</ele>
        <time>2012-03-04T17:50:31Z</time>
      </trkpt>
      <trkpt lat="60.0218948202" lon="23.5353233554">
        <ele>36.6</ele>
        <time>2012-03-04T17:50:36Z</time>
      </trkpt>
      <trkpt lat="60.0218998494" lon="23.5357378403">
        <ele>37.2</ele>
        <time>2012-03-04T17:50:42Z</time>
      </trkpt>
      <trkpt lat="60.021844445" lon="23.5361330469">
        <ele>38</ele>
        <time>2012-03-04T17:50:48Z</time>
      </trkpt>
      <trkpt lat="60.0217558483" lon="23.5365190334">
        <ele>39</ele>
        <time>2012-03-04T17:50:54Z</time>
      </trkpt>
      <trkpt lat="60.021680495" lon="23.5368499508">
        <ele>39.6</ele>
        <time>2012-03-04T17:51:00Z</time>
      </trkpt>
      <trkpt lat="60.0215975142" lon="23.5372334227">
        <ele>40.8</ele>
        <time>2012-03-04T17:51:06Z</time>
      </trkpt>
      <trkpt lat="60.0215228315" lon="23.53755051">
        <ele>41.4</ele>
        <time>2012-03-04T17:51:11Z</time>
      </trkpt>
      <trkpt lat="60.0214057363" lon="23.5378938326">
        <ele>42.6</ele>
        <time>2012-03-04T17:51:17Z</time>
      </trkpt>
      <trkpt lat="60.0212414511" lon="23.5380768933">
        <ele>43.4</ele>
        <time>2012-03-04T17:51:23Z</time>
      </trkpt>
      <trkpt lat="60.0210887329" lon="23.5382352274">
        <ele>44.2</ele>
        <time>2012-03-04T17:51:28Z</time>
      </trkpt>
      <trkpt lat="60.0210758248" lon="23.5382503987">
        <ele>44.4</ele>
        <time>2012-03-04T17:51:29Z</time>
      </trkpt>
      <trkpt lat="60.0210989588" lon="23.5382878658">
        <ele>45.2</ele>
        <time>2012-03-04T17:51:33Z</time>
      </trkpt>
      <trkpt lat="60.0211246912" lon="23.5382967506">
        <ele>45.8</ele>
        <time>2012-03-04T17:51:38Z</time>
      </trkpt>
      <trkpt lat="60.0211521839" lon="23.5382482194">
        <ele>46.4</ele>
        <time>2012-03-04T17:51:59Z</time>
      </trkpt>
      <trkpt lat="60.0211596438" lon="23.5382325452">
        <ele>46.4</ele>
        <time>2012-03-04T17:52:00Z</time>
      </trkpt>
      <trkpt lat="60.0211890642" lon="23.5381570243">
        <ele>46.4</ele>
        <time>2012-03-04T17:52:04Z</time>
      </trkpt>
      <trkpt lat="60.0212065824" lon="23.5381217365">
        <ele>46.4</ele>
        <time>2012-03-04T17:52:06Z</time>
      </trkpt>
      <trkpt lat="60.021260478" lon="23.5380198964">
        <ele>46.4</ele>
        <time>2012-03-04T17:52:13Z</time>
      </trkpt>
      <trkpt lat="60.0212717098" lon="23.5379938287">
        <ele>46.4</ele>
        <time>2012-03-04T17:52:15Z</time>
      </trkpt>
      <trkpt lat="60.0213245157" lon="23.5379190622">
        <ele>46.4</ele>
        <time>2012-03-04T17:52:20Z</time>
      </trkpt>
      <trkpt lat="60.0214061554" lon="23.5378013803">
        <ele>46.4</ele>
        <time>2012-03-04T17:52:28Z</time>
      </trkpt>
      <trkpt lat="60.0214354921" lon="23.5377259432">
        <ele>46.4</ele>
        <time>2012-03-04T17:52:32Z</time>
      </trkpt>
      <trkpt lat="60.0214872084" lon="23.5375953532">
        <ele>46.4</ele>
        <time>2012-03-04T17:52:39Z</time>
      </trkpt>
      <trkpt lat="60.0215061515" lon="23.5375348359">
        <ele>46.4</ele>
        <time>2012-03-04T17:52:42Z</time>
      </trkpt>
      <trkpt lat="60.0215154554" lon="23.5374885678">
        <ele>46.4</ele>
        <time>2012-03-04T17:52:44Z</time>
      </trkpt>
      <trkpt lat="60.0215384218" lon="23.5374055031">
        <ele>46.4</ele>
        <time>2012-03-04T17:52:48Z</time>
      </trkpt>
      <trkpt lat="60.0215452112" lon="23.5373818662">
        <ele>46.4</ele>
        <time>2012-03-04T17:52:50Z</time>
      </trkpt>
      <trkpt lat="60.021561053" lon="23.537387063">
        <ele>46.4</ele>
        <time>2012-03-04T17:53:18Z</time>
      </trkpt>
      <trkpt lat="60.0215799122" lon="23.5372973766">
        <ele>46.4</ele>
        <time>2012-03-04T17:53:25Z</time>
      </trkpt>
      <trkpt lat="60.0215844385" lon="23.5372793556">
        <ele>46.4</ele>
        <time>2012-03-04T17:53:26Z</time>
      </trkpt>
      <trkpt lat="60.0216077401" lon="23.5371951175">
        <ele>46.4</ele>
        <time>2012-03-04T17:53:31Z</time>
      </trkpt>
      <trkpt lat="60.0216219894" lon="23.5371190936">
        <ele>46.4</ele>
        <time>2012-03-04T17:53:35Z</time>
      </trkpt>
      <trkpt lat="60.0216633121" lon="23.5369332669">
        <ele>46.4</ele>
        <time>2012-03-04T17:53:42Z</time>
      </trkpt>
      <trkpt lat="60.0217288586" lon="23.5366828995">
        <ele>46.2</ele>
        <time>2012-03-04T17:53:48Z</time>
      </trkpt>
      <trkpt lat="60.0217953271" lon="23.5363720149">
        <ele>45.4</ele>
        <time>2012-03-04T17:53:54Z</time>
      </trkpt>
      <trkpt lat="60.0218821635" lon="23.5360239146">
        <ele>44.8</ele>
        <time>2012-03-04T17:54:01Z</time>
      </trkpt>
      <trkpt lat="60.0219002684" lon="23.535838926">
        <ele>44.6</ele>
        <time>2012-03-04T17:54:07Z</time>
      </trkpt>
      <trkpt lat="60.0219021963" lon="23.5358210726">
        <ele>44.6</ele>
        <time>2012-03-04T17:54:08Z</time>
      </trkpt>
      <trkpt lat="60.0219109135" lon="23.5356349944">
        <ele>44.6</ele>
        <time>2012-03-04T17:54:13Z</time>
      </trkpt>
      <trkpt lat="60.021906974" lon="23.5352734831">
        <ele>44.4</ele>
        <time>2012-03-04T17:54:19Z</time>
      </trkpt>
      <trkpt lat="60.021903705" lon="23.534995204">
        <ele>44.4</ele>
        <time>2012-03-04T17:54:24Z</time>
      </trkpt>
      <trkpt lat="60.0218969995" lon="23.5346512946">
        <ele>44.4</ele>
        <time>2012-03-04T17:54:30Z</time>
      </trkpt>
      <trkpt lat="60.0218955746" lon="23.5343837444">
        <ele>44.4</ele>
        <time>2012-03-04T17:54:35Z</time>
      </trkpt>
      <trkpt lat="60.021904627" lon="23.5341026993">
        <ele>44.4</ele>
        <time>2012-03-04T17:54:40Z</time>
      </trkpt>
      <trkpt lat="60.0219135118" lon="23.5337918146">
        <ele>44.4</ele>
        <time>2012-03-04T17:54:45Z</time>
      </trkpt>
      <trkpt lat="60.0219316168" lon="23.5334787506">
        <ele>44.4</ele>
        <time>2012-03-04T17:54:50Z</time>
      </trkpt>
      <trkpt lat="60.0219578521" lon="23.5331468274">
        <ele>44.4</ele>
        <time>2012-03-04T17:54:56Z</time>
      </trkpt>
      <trkpt lat="60.021986602" lon="23.5327559794">
        <ele>44.4</ele>
        <time>2012-03-04T17:55:03Z</time>
      </trkpt>
      <trkpt lat="60.0220147652" lon="23.5324703242">
        <ele>43.8</ele>
        <time>2012-03-04T17:55:08Z</time>
      </trkpt>
      <trkpt lat="60.0220633802" lon="23.5321109922">
        <ele>43.2</ele>
        <time>2012-03-04T17:55:14Z</time>
      </trkpt>
      <trkpt lat="60.0221118276" lon="23.5318093276">
        <ele>42.8</ele>
        <time>2012-03-04T17:55:19Z</time>
      </trkpt>
      <trkpt lat="60.0221506358" lon="23.5315908115">
        <ele>42.6</ele>
        <time>2012-03-04T17:55:23Z</time>
      </trkpt>
      <trkpt lat="60.0221841634" lon="23.5313656736">
        <ele>41.8</ele>
        <time>2012-03-04T17:55:27Z</time>
      </trkpt>
      <trkpt lat="60.0221705847" lon="23.5311584731">
        <ele>41.4</ele>
        <time>2012-03-04T17:55:31Z</time>
      </trkpt>
      <trkpt lat="60.0221504682" lon="23.5310035756">
        <ele>40.8</ele>
        <time>2012-03-04T17:55:34Z</time>
      </trkpt>
      <trkpt lat="60.0220530705" lon="23.5307254641">
        <ele>39.6</ele>
        <time>2012-03-04T17:55:40Z</time>
      </trkpt>
      <trkpt lat="60.0219864344" lon="23.5304783657">
        <ele>38.6</ele>
        <time>2012-03-04T17:55:45Z</time>
      </trkpt>
      <trkpt lat="60.0219428485" lon="23.5300907867">
        <ele>37.2</ele>
        <time>2012-03-04T17:55:52Z</time>
      </trkpt>
      <trkpt lat="60.0219451116" lon="23.5298120047">
        <ele>36</ele>
        <time>2012-03-04T17:55:57Z</time>
      </trkpt>
      <trkpt lat="60.0219691677" lon="23.5295951649">
        <ele>35.4</ele>
        <time>2012-03-04T17:56:01Z</time>
      </trkpt>
      <trkpt lat="60.0219762085" lon="23.5295433648">
        <ele>35</ele>
        <time>2012-03-04T17:56:02Z</time>
      </trkpt>
      <trkpt lat="60.022036139" lon="23.5292014671">
        <ele>33.6</ele>
        <time>2012-03-04T17:56:08Z</time>
      </trkpt>
      <trkpt lat="60.0220617038" lon="23.5290539456">
        <ele>32.6</ele>
        <time>2012-03-04T17:56:12Z</time>
      </trkpt>
      <trkpt lat="60.0221015179" lon="23.5289290553">
        <ele>31.2</ele>
        <time>2012-03-04T17:56:19Z</time>
      </trkpt>
      <trkpt lat="60.0220992548" lon="23.528863425">
        <ele>30.4</ele>
        <time>2012-03-04T17:56:26Z</time>
      </trkpt>
      <trkpt lat="60.0220791382" lon="23.5289587272">
        <ele>29</ele>
        <time>2012-03-04T17:56:34Z</time>
      </trkpt>
      <trkpt lat="60.0220182018" lon="23.5292725456">
        <ele>28.6</ele>
        <time>2012-03-04T17:56:39Z</time>
      </trkpt>
      <trkpt lat="60.021953745" lon="23.5296488929">
        <ele>28.4</ele>
        <time>2012-03-04T17:56:45Z</time>
      </trkpt>
      <trkpt lat="60.021941675" lon="23.5300244858">
        <ele>28.2</ele>
        <time>2012-03-04T17:56:51Z</time>
      </trkpt>
      <trkpt lat="60.0219520686" lon="23.5303858295">
        <ele>28</ele>
        <time>2012-03-04T17:56:57Z</time>
      </trkpt>
      <trkpt lat="60.0220393242" lon="23.5306967142">
        <ele>28</ele>
        <time>2012-03-04T17:57:02Z</time>
      </trkpt>
      <trkpt lat="60.0221441817" lon="23.5309781784">
        <ele>28</ele>
        <time>2012-03-04T17:57:07Z</time>
      </trkpt>
      <trkpt lat="60.0221867618" lon="23.531364584">
        <ele>28.8</ele>
        <time>2012-03-04T17:57:13Z</time>
      </trkpt>
      <trkpt lat="60.0221326985" lon="23.5317394226">
        <ele>29.4</ele>
        <time>2012-03-04T17:57:19Z</time>
      </trkpt>
      <trkpt lat="60.0220785515" lon="23.5320963239">
        <ele>30.8</ele>
        <time>2012-03-04T17:57:25Z</time>
      </trkpt>
      <trkpt lat="60.0220396594" lon="23.5324196976">
        <ele>31.6</ele>
        <time>2012-03-04T17:57:30Z</time>
      </trkpt>
      <trkpt lat="60.0219923855" lon="23.5328181731">
        <ele>33</ele>
        <time>2012-03-04T17:57:36Z</time>
      </trkpt>
      <trkpt lat="60.0219565948" lon="23.5332085182">
        <ele>34.2</ele>
        <time>2012-03-04T17:57:42Z</time>
      </trkpt>
      <trkpt lat="60.0219302756" lon="23.5336021322">
        <ele>35.2</ele>
        <time>2012-03-04T17:57:48Z</time>
      </trkpt>
      <trkpt lat="60.0219064711" lon="23.5339327143">
        <ele>36</ele>
        <time>2012-03-04T17:57:53Z</time>
      </trkpt>
      <trkpt lat="60.0218957422" lon="23.5343163539">
        <ele>37.2</ele>
        <time>2012-03-04T17:57:59Z</time>
      </trkpt>
      <trkpt lat="60.0218975024" lon="23.5347191042">
        <ele>37.8</ele>
        <time>2012-03-04T17:58:05Z</time>
      </trkpt>
      <trkpt lat="60.0219181219" lon="23.5350796097">
        <ele>39</ele>
        <time>2012-03-04T17:58:10Z</time>
      </trkpt>
      <trkpt lat="60.0219250789" lon="23.535451347">
        <ele>39.6</ele>
        <time>2012-03-04T17:58:15Z</time>
      </trkpt>
      <trkpt lat="60.0219223128" lon="23.5358107629">
        <ele>40</ele>
        <time>2012-03-04T17:58:20Z</time>
      </trkpt>
      <trkpt lat="60.0218517372" lon="23.5361829192">
        <ele>41.2</ele>
        <time>2012-03-04T17:58:26Z</time>
      </trkpt>
      <trkpt lat="60.0217584467" lon="23.5365588474">
        <ele>41.8</ele>
        <time>2012-03-04T17:58:32Z</time>
      </trkpt>
      <trkpt lat="60.0216934032" lon="23.5368437482">
        <ele>42.2</ele>
        <time>2012-03-04T17:58:37Z</time>
      </trkpt>
      <trkpt lat="60.0216245039" lon="23.5371491008">
        <ele>43</ele>
        <time>2012-03-04T17:58:42Z</time>
      </trkpt>
      <trkpt lat="60.0215464684" lon="23.5375207543">
        <ele>43.8</ele>
        <time>2012-03-04T17:58:48Z</time>
      </trkpt>
      <trkpt lat="60.0214414432" lon="23.5378630711">
        <ele>44.6</ele>
        <time>2012-03-04T17:58:54Z</time>
      </trkpt>
      <trkpt lat="60.0213049859" lon="23.5380144482">
        <ele>45.4</ele>
        <time>2012-03-04T17:58:59Z</time>
      </trkpt>
      <trkpt lat="60.0211439696" lon="23.5381807451">
        <ele>46</ele>
        <time>2012-03-04T17:59:04Z</time>
      </trkpt>
      <trkpt lat="60.0210611564" lon="23.5382648994">
        <ele>46.2</ele>
        <time>2012-03-04T17:59:08Z</time>
      </trkpt>
      <trkpt lat="60.0210598992" lon="23.5382677492">
        <ele>46.6</ele>
        <time>2012-03-04T17:59:15Z</time>
      </trkpt>
      <trkpt lat="60.0210779202" lon="23.5383035399">
        <ele>47.4</ele>
        <time>2012-03-04T17:59:19Z</time>
      </trkpt>
      <trkpt lat="60.0210918342" lon="23.5383115027">
        <ele>48.2</ele>
        <time>2012-03-04T17:59:28Z</time>
      </trkpt>
      <trkpt lat="60.0211028145" lon="23.5383060545">
        <ele>48.4</ele>
        <time>2012-03-04T17:59:38Z</time>
      </trkpt>
      <trkpt lat="60.0210774173" lon="23.538272024">
        <ele>48.6</ele>
        <time>2012-03-04T18:00:09Z</time>
      </trkpt>
      <trkpt lat="60.0210613241" lon="23.5382604569">
        <ele>48.6</ele>
        <time>2012-03-04T18:00:20Z</time>
      </trkpt>
      <trkpt lat="60.0210186602" lon="23.5382721916">
        <ele>48.6</ele>
        <time>2012-03-04T18:00:28Z</time>
      </trkpt>
      <trkpt lat="60.0208871482" lon="23.5384114988">
        <ele>48.6</ele>
        <time>2012-03-04T18:00:33Z</time>
      </trkpt>
      <trkpt lat="60.0207150678" lon="23.5385840821">
        <ele>48.6</ele>
        <time>2012-03-04T18:00:39Z</time>
      </trkpt>
      <trkpt lat="60.0205592483" lon="23.5387421647">
        <ele>48.6</ele>
        <time>2012-03-04T18:00:44Z</time>
      </trkpt>
      <trkpt lat="60.0202605173" lon="23.539044919">
        <ele>48.6</ele>
        <time>2012-03-04T18:00:53Z</time>
      </trkpt>
      <trkpt lat="60.0201331125" lon="23.5391786941">
        <ele>48.6</ele>
        <time>2012-03-04T18:00:57Z</time>
      </trkpt>
      <trkpt lat="60.0198629638" lon="23.5395200889">
        <ele>48.6</ele>
        <time>2012-03-04T18:01:06Z</time>
      </trkpt>
      <trkpt lat="60.0196935656" lon="23.539776575">
        <ele>48.6</ele>
        <time>2012-03-04T18:01:12Z</time>
      </trkpt>
      <trkpt lat="60.019537327" lon="23.5399948397">
        <ele>48.6</ele>
        <time>2012-03-04T18:01:17Z</time>
      </trkpt>
      <trkpt lat="60.0193996124" lon="23.5401911438">
        <ele>48.6</ele>
        <time>2012-03-04T18:01:22Z</time>
      </trkpt>
      <trkpt lat="60.0192351595" lon="23.5404384098">
        <ele>49.6</ele>
        <time>2012-03-04T18:01:28Z</time>
      </trkpt>
      <trkpt lat="60.0191051563" lon="23.5406741927">
        <ele>50</ele>
        <time>2012-03-04T18:01:33Z</time>
      </trkpt>
      <trkpt lat="60.0190014722" lon="23.5409373005">
        <ele>50.4</ele>
        <time>2012-03-04T18:01:38Z</time>
      </trkpt>
      <trkpt lat="60.0188781744" lon="23.5412238777">
        <ele>50.4</ele>
        <time>2012-03-04T18:01:43Z</time>
      </trkpt>
      <trkpt lat="60.0187771725" lon="23.5414930205">
        <ele>50.6</ele>
        <time>2012-03-04T18:01:48Z</time>
      </trkpt>
      <trkpt lat="60.018678769" lon="23.5417671086">
        <ele>51</ele>
        <time>2012-03-04T18:01:53Z</time>
      </trkpt>
      <trkpt lat="60.0185770966" lon="23.5420252712">
        <ele>51.8</ele>
        <time>2012-03-04T18:01:58Z</time>
      </trkpt>
      <trkpt lat="60.0184121408" lon="23.5423517462">
        <ele>52.2</ele>
        <time>2012-03-04T18:02:05Z</time>
      </trkpt>
      <trkpt lat="60.0183289085" lon="23.5424688413">
        <ele>52.4</ele>
        <time>2012-03-04T18:02:08Z</time>
      </trkpt>
      <trkpt lat="60.0181673055" lon="23.5425760458">
        <ele>52.6</ele>
        <time>2012-03-04T18:02:13Z</time>
      </trkpt>
      <trkpt lat="60.0180388948" lon="23.5426400835">
        <ele>52.6</ele>
        <time>2012-03-04T18:02:17Z</time>
      </trkpt>
      <trkpt lat="60.0179031918" lon="23.5426985892">
        <ele>52.8</ele>
        <time>2012-03-04T18:02:21Z</time>
      </trkpt>
      <trkpt lat="60.0176985058" lon="23.5427581845">
        <ele>52.8</ele>
        <time>2012-03-04T18:02:27Z</time>
      </trkpt>
      <trkpt lat="60.0175343044" lon="23.5428024409">
        <ele>52.8</ele>
        <time>2012-03-04T18:02:32Z</time>
      </trkpt>
      <trkpt lat="60.0173701868" lon="23.5428441828">
        <ele>52.8</ele>
        <time>2012-03-04T18:02:37Z</time>
      </trkpt>
      <trkpt lat="60.0172484816" lon="23.5428879363">
        <ele>52.8</ele>
        <time>2012-03-04T18:02:41Z</time>
      </trkpt>
      <trkpt lat="60.0170845316" lon="23.5429411614">
        <ele>52.8</ele>
        <time>2012-03-04T18:02:46Z</time>
      </trkpt>
      <trkpt lat="60.0169182347" lon="23.5429866751">
        <ele>52.8</ele>
        <time>2012-03-04T18:02:51Z</time>
      </trkpt>
      <trkpt lat="60.0167583919" lon="23.5430329432">
        <ele>52.8</ele>
        <time>2012-03-04T18:02:56Z</time>
      </trkpt>
      <trkpt lat="60.0165872335" lon="23.5430782892">
        <ele>52.8</ele>
        <time>2012-03-04T18:03:01Z</time>
      </trkpt>
      <trkpt lat="60.0163875766" lon="23.5431483619">
        <ele>52.8</ele>
        <time>2012-03-04T18:03:07Z</time>
      </trkpt>
      <trkpt lat="60.0161920269" lon="23.5432022575">
        <ele>52.8</ele>
        <time>2012-03-04T18:03:13Z</time>
      </trkpt>
      <trkpt lat="60.0160359559" lon="23.5432338573">
        <ele>52.8</ele>
        <time>2012-03-04T18:03:18Z</time>
      </trkpt>
      <trkpt lat="60.0158740176" lon="23.5432832267">
        <ele>52.8</ele>
        <time>2012-03-04T18:03:23Z</time>
      </trkpt>
      <trkpt lat="60.0157171085" lon="23.5433649502">
        <ele>52.8</ele>
        <time>2012-03-04T18:03:28Z</time>
      </trkpt>
      <trkpt lat="60.0155604507" lon="23.5434267248">
        <ele>52.8</ele>
        <time>2012-03-04T18:03:33Z</time>
      </trkpt>
      <trkpt lat="60.0154749554" lon="23.5434893376">
        <ele>52.8</ele>
        <time>2012-03-04T18:03:36Z</time>
      </trkpt>
      <trkpt lat="60.015399183" lon="23.5435404672">
        <ele>52.8</ele>
        <time>2012-03-04T18:03:39Z</time>
      </trkpt>
      <trkpt lat="60.0152815011" lon="23.5436128868">
        <ele>52.8</ele>
        <time>2012-03-04T18:03:43Z</time>
      </trkpt>
      <trkpt lat="60.0152636477" lon="23.5435892499">
        <ele>52.8</ele>
        <time>2012-03-04T18:03:49Z</time>
      </trkpt>
      <trkpt lat="60.0152673357" lon="23.5435741625">
        <ele>52.8</ele>
        <time>2012-03-04T18:04:12Z</time>
      </trkpt>
      <trkpt lat="60.0152961694" lon="23.543558153">
        <ele>52.8</ele>
        <time>2012-03-04T18:04:21Z</time>
      </trkpt>
      <trkpt lat="60.0153343071" lon="23.5435090351">
        <ele>52.8</ele>
        <time>2012-03-04T18:04:26Z</time>
      </trkpt>
      <trkpt lat="60.0154141866" lon="23.543442399">
        <ele>52.8</ele>
        <time>2012-03-04T18:04:33Z</time>
      </trkpt>
      <trkpt lat="60.0154888693" lon="23.5433916885">
        <ele>52.8</ele>
        <time>2012-03-04T18:04:39Z</time>
      </trkpt>
      <trkpt lat="60.0155750352" lon="23.5433156647">
        <ele>52.8</ele>
        <time>2012-03-04T18:04:46Z</time>
      </trkpt>
      <trkpt lat="60.0156777973" lon="23.543235869">
        <ele>52</ele>
        <time>2012-03-04T18:04:55Z</time>
      </trkpt>
      <trkpt lat="60.0157736025" lon="23.5431875054">
        <ele>51.4</ele>
        <time>2012-03-04T18:05:02Z</time>
      </trkpt>
      <trkpt lat="60.0158921225" lon="23.543122378">
        <ele>51</ele>
        <time>2012-03-04T18:05:10Z</time>
      </trkpt>
      <trkpt lat="60.0159776179" lon="23.5430981544">
        <ele>50.8</ele>
        <time>2012-03-04T18:05:16Z</time>
      </trkpt>
      <trkpt lat="60.0160321003" lon="23.5430793789">
        <ele>50.8</ele>
        <time>2012-03-04T18:05:20Z</time>
      </trkpt>
      <trkpt lat="60.0160935396" lon="23.5430611064">
        <ele>50.2</ele>
        <time>2012-03-04T18:05:25Z</time>
      </trkpt>
      <trkpt lat="60.0161071183" lon="23.5430549876">
        <ele>50</ele>
        <time>2012-03-04T18:05:26Z</time>
      </trkpt>
      <trkpt lat="60.0161890932" lon="23.5430377209">
        <ele>49.4</ele>
        <time>2012-03-04T18:05:32Z</time>
      </trkpt>
      <trkpt lat="60.0162794501" lon="23.5430153412">
        <ele>49</ele>
        <time>2012-03-04T18:05:39Z</time>
      </trkpt>
      <trkpt lat="60.0163234551" lon="23.5430104797">
        <ele>49</ele>
        <time>2012-03-04T18:05:42Z</time>
      </trkpt>
      <trkpt lat="60.0163799491" lon="23.5430088033">
        <ele>48.8</ele>
        <time>2012-03-04T18:05:46Z</time>
      </trkpt>
      <trkpt lat="60.0164052624" lon="23.542995979">
        <ele>48.8</ele>
        <time>2012-03-04T18:05:48Z</time>
      </trkpt>
      <trkpt lat="60.0164640196" lon="23.5429904469">
        <ele>48.8</ele>
        <time>2012-03-04T18:05:52Z</time>
      </trkpt>
      <trkpt lat="60.0166292268" lon="23.5429295943">
        <ele>48.8</ele>
        <time>2012-03-04T18:05:59Z</time>
      </trkpt>
      <trkpt lat="60.0167687016" lon="23.5428840806">
        <ele>48.8</ele>
        <time>2012-03-04T18:06:04Z</time>
      </trkpt>
      <trkpt lat="60.0169272034" lon="23.5428418359">
        <ele>48.8</ele>
        <time>2012-03-04T18:06:10Z</time>
      </trkpt>
      <trkpt lat="60.0170926621" lon="23.54278618">
        <ele>48.8</ele>
        <time>2012-03-04T18:06:16Z</time>
      </trkpt>
      <trkpt lat="60.0172261019" lon="23.5427456116">
        <ele>48.8</ele>
        <time>2012-03-04T18:06:21Z</time>
      </trkpt>
      <trkpt lat="60.0173905548" lon="23.5426965775">
        <ele>48.6</ele>
        <time>2012-03-04T18:06:27Z</time>
      </trkpt>
      <trkpt lat="60.0175223183" lon="23.5426628823">
        <ele>48.6</ele>
        <time>2012-03-04T18:06:32Z</time>
      </trkpt>
      <trkpt lat="60.0177146829" lon="23.5426117527">
        <ele>49.6</ele>
        <time>2012-03-04T18:06:39Z</time>
      </trkpt>
      <trkpt lat="60.017874861" lon="23.5425559292">
        <ele>50</ele>
        <time>2012-03-04T18:06:45Z</time>
      </trkpt>
      <trkpt lat="60.0180173533" lon="23.5424957472">
        <ele>50.4</ele>
        <time>2012-03-04T18:06:51Z</time>
      </trkpt>
      <trkpt lat="60.0181916968" lon="23.5424146942">
        <ele>50.6</ele>
        <time>2012-03-04T18:06:57Z</time>
      </trkpt>
      <trkpt lat="60.0183187664" lon="23.5423248403">
        <ele>50.6</ele>
        <time>2012-03-04T18:07:02Z</time>
      </trkpt>
      <trkpt lat="60.0184026692" lon="23.5422280293">
        <ele>50.6</ele>
        <time>2012-03-04T18:07:06Z</time>
      </trkpt>
      <trkpt lat="60.0185243744" lon="23.542050333">
        <ele>50.6</ele>
        <time>2012-03-04T18:07:12Z</time>
      </trkpt>
      <trkpt lat="60.0185396295" lon="23.5420108543">
        <ele>50.6</ele>
        <time>2012-03-04T18:07:13Z</time>
      </trkpt>
      <trkpt lat="60.0186327524" lon="23.5418045757">
        <ele>50.2</ele>
        <time>2012-03-04T18:07:19Z</time>
      </trkpt>
      <trkpt lat="60.0187076027" lon="23.5416033263">
        <ele>49.6</ele>
        <time>2012-03-04T18:07:24Z</time>
      </trkpt>
      <trkpt lat="60.0187673657" lon="23.5414419747">
        <ele>49.2</ele>
        <time>2012-03-04T18:07:28Z</time>
      </trkpt>
      <trkpt lat="60.0188364325" lon="23.5412828863">
        <ele>48.6</ele>
        <time>2012-03-04T18:07:32Z</time>
      </trkpt>
      <trkpt lat="60.0189226823" lon="23.5410217901">
        <ele>47.6</ele>
        <time>2012-03-04T18:07:38Z</time>
      </trkpt>
      <trkpt lat="60.0189943475" lon="23.5408441776">
        <ele>47.4</ele>
        <time>2012-03-04T18:07:42Z</time>
      </trkpt>
      <trkpt lat="60.0191012168" lon="23.5405801478">
        <ele>46</ele>
        <time>2012-03-04T18:07:48Z</time>
      </trkpt>
      <trkpt lat="60.0192068287" lon="23.5403943211">
        <ele>45.4</ele>
        <time>2012-03-04T18:07:53Z</time>
      </trkpt>
      <trkpt lat="60.0194416057" lon="23.5400256851">
        <ele>44.8</ele>
        <time>2012-03-04T18:08:04Z</time>
      </trkpt>
      <trkpt lat="60.0195747941" lon="23.5398298839">
        <ele>44.6</ele>
        <time>2012-03-04T18:08:10Z</time>
      </trkpt>
      <trkpt lat="60.019692476" lon="23.5396727233">
        <ele>44.6</ele>
        <time>2012-03-04T18:08:15Z</time>
      </trkpt>
      <trkpt lat="60.0198280951" lon="23.5394727311">
        <ele>44.6</ele>
        <time>2012-03-04T18:08:21Z</time>
      </trkpt>
      <trkpt lat="60.019975868" lon="23.5393133912">
        <ele>44.6</ele>
        <time>2012-03-04T18:08:27Z</time>
      </trkpt>
      <trkpt lat="60.0201334477" lon="23.539143993">
        <ele>44.6</ele>
        <time>2012-03-04T18:08:33Z</time>
      </trkpt>
      <trkpt lat="60.0201853317" lon="23.5390934502">
        <ele>44.6</ele>
        <time>2012-03-04T18:08:35Z</time>
      </trkpt>
      <trkpt lat="60.0202780355" lon="23.5389968069">
        <ele>44.6</ele>
        <time>2012-03-04T18:08:39Z</time>
      </trkpt>
      <trkpt lat="60.0204060271" lon="23.5388699049">
        <ele>44.6</ele>
        <time>2012-03-04T18:08:44Z</time>
      </trkpt>
      <trkpt lat="60.0205656185" lon="23.5387357945">
        <ele>44.6</ele>
        <time>2012-03-04T18:08:50Z</time>
      </trkpt>
      <trkpt lat="60.0207384533" lon="23.5385489619">
        <ele>44.6</ele>
        <time>2012-03-04T18:08:57Z</time>
      </trkpt>
      <trkpt lat="60.0209033253" lon="23.5383898735">
        <ele>44.6</ele>
        <time>2012-03-04T18:09:03Z</time>
      </trkpt>
      <trkpt lat="60.0209899103" lon="23.5383070603">
        <ele>44.6</ele>
        <time>2012-03-04T18:09:08Z</time>
      </trkpt>
      <trkpt lat="60.0210310654" lon="23.5382795677">
        <ele>44.6</ele>
        <time>2012-03-04T18:09:15Z</time>
      </trkpt>
      <trkpt lat="60.0210579713" lon="23.5382620495">
        <ele>44.6</ele>
        <time>2012-03-04T18:09:32Z</time>
      </trkpt>
      <trkpt lat="60.0210942649" lon="23.5382679168">
        <ele>44.6</ele>
        <time>2012-03-04T18:10:20Z</time>
      </trkpt>
      <trkpt lat="60.0211441372" lon="23.5381276877">
        <ele>48.4</ele>
        <time>2012-03-04T18:11:06Z</time>
      </trkpt>
      <trkpt lat="60.0211668522" lon="23.5380639852">
        <ele>48.4</ele>
        <time>2012-03-04T18:11:09Z</time>
      </trkpt>
      <trkpt lat="60.0212753978" lon="23.5379335628">
        <ele>48.6</ele>
        <time>2012-03-04T18:11:17Z</time>
      </trkpt>
      <trkpt lat="60.0214082509" lon="23.5377796712">
        <ele>48.6</ele>
        <time>2012-03-04T18:11:23Z</time>
      </trkpt>
      <trkpt lat="60.0214491546" lon="23.5377192377">
        <ele>48.6</ele>
        <time>2012-03-04T18:11:25Z</time>
      </trkpt>
      <trkpt lat="60.0215398467" lon="23.5373241149">
        <ele>48.6</ele>
        <time>2012-03-04T18:11:33Z</time>
      </trkpt>
      <trkpt lat="60.0216001126" lon="23.5370755916">
        <ele>48.6</ele>
        <time>2012-03-04T18:11:38Z</time>
      </trkpt>
      <trkpt lat="60.0216650723" lon="23.5368414013">
        <ele>48.6</ele>
        <time>2012-03-04T18:11:43Z</time>
      </trkpt>
      <trkpt lat="60.0217145255" lon="23.5366431693">
        <ele>48.6</ele>
        <time>2012-03-04T18:11:47Z</time>
      </trkpt>
      <trkpt lat="60.021804631" lon="23.5362755392">
        <ele>48.2</ele>
        <time>2012-03-04T18:11:54Z</time>
      </trkpt>
      <trkpt lat="60.0218813254" lon="23.5359671691">
        <ele>47.4</ele>
        <time>2012-03-04T18:12:00Z</time>
      </trkpt>
      <trkpt lat="60.0219130089" lon="23.53568428">
        <ele>47</ele>
        <time>2012-03-04T18:12:05Z</time>
      </trkpt>
      <trkpt lat="60.0219141824" lon="23.5353718028">
        <ele>46.8</ele>
        <time>2012-03-04T18:12:10Z</time>
      </trkpt>
      <trkpt lat="60.0219146015" lon="23.5350910091">
        <ele>46.6</ele>
        <time>2012-03-04T18:12:15Z</time>
      </trkpt>
      <trkpt lat="60.0219147691" lon="23.5348206928">
        <ele>46.6</ele>
        <time>2012-03-04T18:12:20Z</time>
      </trkpt>
      <trkpt lat="60.0219174513" lon="23.5346067867">
        <ele>45.8</ele>
        <time>2012-03-04T18:12:24Z</time>
      </trkpt>
      <trkpt lat="60.0219224805" lon="23.5342628774">
        <ele>45.2</ele>
        <time>2012-03-04T18:12:30Z</time>
      </trkpt>
      <trkpt lat="60.0219305271" lon="23.5339706005">
        <ele>44.8</ele>
        <time>2012-03-04T18:12:35Z</time>
      </trkpt>
      <trkpt lat="60.0219482967" lon="23.5336828499">
        <ele>44.6</ele>
        <time>2012-03-04T18:12:40Z</time>
      </trkpt>
      <trkpt lat="60.0219684971" lon="23.5334011342">
        <ele>44.6</ele>
        <time>2012-03-04T18:12:45Z</time>
      </trkpt>
      <trkpt lat="60.0219846742" lon="23.5331055884">
        <ele>44.6</ele>
        <time>2012-03-04T18:12:50Z</time>
      </trkpt>
      <trkpt lat="60.0220084788" lon="23.5328221126">
        <ele>44.4</ele>
        <time>2012-03-04T18:12:55Z</time>
      </trkpt>
      <trkpt lat="60.0220327863" lon="23.5324810531">
        <ele>44.4</ele>
        <time>2012-03-04T18:13:01Z</time>
      </trkpt>
      <trkpt lat="60.0220686608" lon="23.5321841662">
        <ele>44.4</ele>
        <time>2012-03-04T18:13:06Z</time>
      </trkpt>
      <trkpt lat="60.0221238137" lon="23.531855009">
        <ele>44</ele>
        <time>2012-03-04T18:13:12Z</time>
      </trkpt>
      <trkpt lat="60.022190366" lon="23.5315059867">
        <ele>43.2</ele>
        <time>2012-03-04T18:13:18Z</time>
      </trkpt>
      <trkpt lat="60.022209812" lon="23.5312296354">
        <ele>43</ele>
        <time>2012-03-04T18:13:23Z</time>
      </trkpt>
      <trkpt lat="60.0222011787" lon="23.5310687867">
        <ele>42.8</ele>
        <time>2012-03-04T18:13:26Z</time>
      </trkpt>
      <trkpt lat="60.0221159347" lon="23.5307996439">
        <ele>41.8</ele>
        <time>2012-03-04T18:13:32Z</time>
      </trkpt>
      <trkpt lat="60.0220321157" lon="23.5305711533">
        <ele>41.2</ele>
        <time>2012-03-04T18:13:37Z</time>
      </trkpt>
      <trkpt lat="60.0220165254" lon="23.5305289086">
        <ele>41</ele>
        <time>2012-03-04T18:13:38Z</time>
      </trkpt>
      <trkpt lat="60.021966234" lon="23.5303273239">
        <ele>40</ele>
        <time>2012-03-04T18:13:42Z</time>
      </trkpt>
      <trkpt lat="60.0219516495" lon="23.5302347877">
        <ele>39.6</ele>
        <time>2012-03-04T18:13:44Z</time>
      </trkpt>
      <trkpt lat="60.0219322035" lon="23.5299214723">
        <ele>38.8</ele>
        <time>2012-03-04T18:13:50Z</time>
      </trkpt>
      <trkpt lat="60.0219600314" lon="23.5296207297">
        <ele>37.8</ele>
        <time>2012-03-04T18:13:55Z</time>
      </trkpt>
      <trkpt lat="60.0220064671" lon="23.5293392655">
        <ele>37</ele>
        <time>2012-03-04T18:14:00Z</time>
      </trkpt>
      <trkpt lat="60.0220580158" lon="23.5290862159">
        <ele>35.8</ele>
        <time>2012-03-04T18:14:05Z</time>
      </trkpt>
      <trkpt lat="60.0220725165" lon="23.5290387744">
        <ele>35.4</ele>
        <time>2012-03-04T18:14:07Z</time>
      </trkpt>
      <trkpt lat="60.0220948123" lon="23.5288663587">
        <ele>34.4</ele>
        <time>2012-03-04T18:14:14Z</time>
      </trkpt>
      <trkpt lat="60.022094058" lon="23.5288252036">
        <ele>33</ele>
        <time>2012-03-04T18:14:22Z</time>
      </trkpt>
      <trkpt lat="60.0220873525" lon="23.5288647661">
        <ele>32.8</ele>
        <time>2012-03-04T18:14:23Z</time>
      </trkpt>
      <trkpt lat="60.0220239853" lon="23.5292203263">
        <ele>32.4</ele>
        <time>2012-03-04T18:14:28Z</time>
      </trkpt>
      <trkpt lat="60.0219693353" lon="23.5296047203">
        <ele>31.4</ele>
        <time>2012-03-04T18:14:33Z</time>
      </trkpt>
      <trkpt lat="60.0219497217" lon="23.5299309438">
        <ele>30.8</ele>
        <time>2012-03-04T18:14:37Z</time>
      </trkpt>
      <trkpt lat="60.0219599476" lon="23.5300816504">
        <ele>30.6</ele>
        <time>2012-03-04T18:14:39Z</time>
      </trkpt>
      <trkpt lat="60.0219991749" lon="23.5304705705">
        <ele>30.2</ele>
        <time>2012-03-04T18:14:44Z</time>
      </trkpt>
      <trkpt lat="60.0221180302" lon="23.5309031604">
        <ele>30</ele>
        <time>2012-03-04T18:14:50Z</time>
      </trkpt>
      <trkpt lat="60.0221567546" lon="23.5310375223">
        <ele>30</ele>
        <time>2012-03-04T18:14:52Z</time>
      </trkpt>
      <trkpt lat="60.0221717582" lon="23.5314838584">
        <ele>29.8</ele>
        <time>2012-03-04T18:14:58Z</time>
      </trkpt>
      <trkpt lat="60.0221627896" lon="23.5315555237">
        <ele>29.8</ele>
        <time>2012-03-04T18:14:59Z</time>
      </trkpt>
      <trkpt lat="60.0220877715" lon="23.5320031171">
        <ele>29.8</ele>
        <time>2012-03-04T18:15:05Z</time>
      </trkpt>
      <trkpt lat="60.0220443533" lon="23.5323512174">
        <ele>30</ele>
        <time>2012-03-04T18:15:10Z</time>
      </trkpt>
      <trkpt lat="60.0219945648" lon="23.5327080349">
        <ele>30.8</ele>
        <time>2012-03-04T18:15:15Z</time>
      </trkpt>
      <trkpt lat="60.0219534935" lon="23.5330987991">
        <ele>31.2</ele>
        <time>2012-03-04T18:15:20Z</time>
      </trkpt>
      <trkpt lat="60.0219336284" lon="23.5334876355">
        <ele>32.4</ele>
        <time>2012-03-04T18:15:25Z</time>
      </trkpt>
      <trkpt lat="60.0219118355" lon="23.5338850213">
        <ele>33.2</ele>
        <time>2012-03-04T18:15:30Z</time>
      </trkpt>
      <trkpt lat="60.0219047109" lon="23.5342683256">
        <ele>34.4</ele>
        <time>2012-03-04T18:15:35Z</time>
      </trkpt>
      <trkpt lat="60.0219076445" lon="23.5343446009">
        <ele>34.6</ele>
        <time>2012-03-04T18:15:36Z</time>
      </trkpt>
      <trkpt lat="60.0219080636" lon="23.5346435833">
        <ele>35.4</ele>
        <time>2012-03-04T18:15:40Z</time>
      </trkpt>
      <trkpt lat="60.021915775" lon="23.5350468365">
        <ele>36.6</ele>
        <time>2012-03-04T18:15:45Z</time>
      </trkpt>
      <trkpt lat="60.0219192954" lon="23.5353019815">
        <ele>37.2</ele>
        <time>2012-03-04T18:15:48Z</time>
      </trkpt>
      <trkpt lat="60.021924576" lon="23.5356506686">
        <ele>37.6</ele>
        <time>2012-03-04T18:15:52Z</time>
      </trkpt>
      <trkpt lat="60.0219054652" lon="23.5359763054">
        <ele>38</ele>
        <time>2012-03-04T18:15:56Z</time>
      </trkpt>
      <trkpt lat="60.0217560159" lon="23.5366649623">
        <ele>39.4</ele>
        <time>2012-03-04T18:16:05Z</time>
      </trkpt>
      <trkpt lat="60.0216014537" lon="23.5372884918">
        <ele>40</ele>
        <time>2012-03-04T18:16:14Z</time>
      </trkpt>
      <trkpt lat="60.0215824268" lon="23.5373669464">
        <ele>40.2</ele>
        <time>2012-03-04T18:16:15Z</time>
      </trkpt>
      <trkpt lat="60.0215069059" lon="23.5376762385">
        <ele>40.6</ele>
        <time>2012-03-04T18:16:19Z</time>
      </trkpt>
      <trkpt lat="60.0214853644" lon="23.5377597222">
        <ele>40.8</ele>
        <time>2012-03-04T18:16:20Z</time>
      </trkpt>
      <trkpt lat="60.0214655831" lon="23.5378336506">
        <ele>41</ele>
        <time>2012-03-04T18:16:21Z</time>
      </trkpt>
      <trkpt lat="60.0213325624" lon="23.5380110954">
        <ele>41.6</ele>
        <time>2012-03-04T18:16:25Z</time>
      </trkpt>
      <trkpt lat="60.0212915749" lon="23.5380501551">
        <ele>41.8</ele>
        <time>2012-03-04T18:16:26Z</time>
      </trkpt>
      <trkpt lat="60.0212254417" lon="23.5381402605">
        <ele>42</ele>
        <time>2012-03-04T18:16:28Z</time>
      </trkpt>
      <trkpt lat="60.0210579713" lon="23.5382964153">
        <ele>43</ele>
        <time>2012-03-04T18:16:33Z</time>
      </trkpt>
      <trkpt lat="60.021043303" lon="23.5382964991">
        <ele>43.4</ele>
        <time>2012-03-04T18:16:36Z</time>
      </trkpt>
      <trkpt lat="60.0210584742" lon="23.5382820823">
        <ele>44.4</ele>
        <time>2012-03-04T18:16:43Z</time>
      </trkpt>
      <trkpt lat="60.0210631681" lon="23.5383070603">
        <ele>45.4</ele>
        <time>2012-03-04T18:16:49Z</time>
      </trkpt>
      <trkpt lat="60.0210817759" lon="23.5383023664">
        <ele>48</ele>
        <time>2012-03-04T18:17:17Z</time>
      </trkpt>
      <trkpt lat="60.0211189915" lon="23.5382940684">
        <ele>49.4</ele>
        <time>2012-03-04T18:17:23Z</time>
      </trkpt>
      <trkpt lat="60.0211358392" lon="23.5383037076">
        <ele>50</ele>
        <time>2012-03-04T18:17:29Z</time>
      </trkpt>
      <trkpt lat="60.0211930875" lon="23.538304881">
        <ele>51.8</ele>
        <time>2012-03-04T18:17:37Z</time>
      </trkpt>
      <trkpt lat="60.0211960212" lon="23.538290548">
        <ele>51.8</ele>
        <time>2012-03-04T18:17:38Z</time>
      </trkpt>
      <trkpt lat="60.0212245197" lon="23.5382024542">
        <ele>52.6</ele>
        <time>2012-03-04T18:17:44Z</time>
      </trkpt>
      <trkpt lat="60.0212773256" lon="23.5381181323">
        <ele>53.6</ele>
        <time>2012-03-04T18:17:50Z</time>
      </trkpt>
      <trkpt lat="60.0213525113" lon="23.538033978">
        <ele>54.4</ele>
        <time>2012-03-04T18:17:58Z</time>
      </trkpt>
      <trkpt lat="60.021401713" lon="23.537967761">
        <ele>54.6</ele>
        <time>2012-03-04T18:18:03Z</time>
      </trkpt>
      <trkpt lat="60.0214529264" lon="23.5379054835">
        <ele>55.4</ele>
        <time>2012-03-04T18:18:08Z</time>
      </trkpt>
      <trkpt lat="60.021536494" lon="23.537803811">
        <ele>56.4</ele>
        <time>2012-03-04T18:18:17Z</time>
      </trkpt>
      <trkpt lat="60.0215581193" lon="23.5377385999">
        <ele>56.8</ele>
        <time>2012-03-04T18:18:24Z</time>
      </trkpt>
      <trkpt lat="60.0215797446" lon="23.5376771605">
        <ele>56.8</ele>
        <time>2012-03-04T18:18:30Z</time>
      </trkpt>
      <trkpt lat="60.0215604662" lon="23.5376003823">
        <ele>57</ele>
        <time>2012-03-04T18:19:22Z</time>
      </trkpt>
    </trkseg>
  </trk>
</gpx>